M I D A S
Marine Information and Data Acquisition System
Tripno 1700 of the Zeeleeuw from 2009-05-27 07:00:46 to 2009-05-27 12:25:24
Back to CruiseResearch ActivitiesStationsMapUnderway DataData graphs

EquipmentUnitsComment
TimeDGPSUTC
LatitudeDGPSDM.mWGS84
LongitudeDGPSDM.mWGS84
TemperatureSBE03/SBE38deg celciusITS90
ConductivitySBE21S/mITS90
SalinitySBE21 Practical Salinity Units
ChlorophylAChelsea fluorimeterg/lCalibrated in Aceton
Missing or incorrect values are displayed as -999
Sea surface data collected by the RV Zeeleeuw from 2009-05-27 07:04:53 to 2009-05-27 17:11:54
                                                                                    Next 1000 lines
Time Latitude Longitude Temperature Conductivity Salinity ChlorophylA
2009-05-27 07:05:03 51°13.663 2°55.955 -999 0.023891 0.135514 0.462042
2009-05-27 07:05:08 51°13.664 2°55.953 -999 0.024302 0.137845 0.462042
2009-05-27 07:05:12 51°13.665 2°55.95 -999 0.024096 0.136679 0.462042
2009-05-27 07:05:18 51°13.666 2°55.947 -999 0.023993 0.136098 0.462042
2009-05-27 07:05:24 51°13.667 2°55.942 -999 0.023993 0.136098 0.462042
2009-05-27 07:05:29 51°13.668 2°55.938 -999 0.023891 0.135511 0.462042
2009-05-27 07:05:35 51°13.67 2°55.933 -999 0.023891 0.135511 0.462042
2009-05-27 07:05:41 51°13.672 2°55.927 -999 0.024096 0.136682 0.462042
2009-05-27 07:05:47 51°13.674 2°55.921 -999 0.023993 0.136102 0.462042
2009-05-27 07:05:52 51°13.675 2°55.916 -999 0.023993 0.136107 0.462042
2009-05-27 07:05:56 51°13.676 2°55.911 -999 0.023993 0.136107 0.462042
2009-05-27 07:06:02 51°13.678 2°55.904 -999 0.023993 0.136112 0.462042
2009-05-27 07:06:07 51°13.679 2°55.898 -999 0.023891 0.135528 0.462042
2009-05-27 07:06:11 51°13.681 2°55.894 -999 0.023993 0.136114 0.462042
2009-05-27 07:06:16 51°13.682 2°55.888 -999 0.023891 0.135533 0.462042
2009-05-27 07:06:22 51°13.683 2°55.881 -999 0.024096 0.136701 0.462042
2009-05-27 07:06:27 51°13.684 2°55.875 -999 0.024096 0.136701 0.462042
2009-05-27 07:06:32 51°13.686 2°55.87 -999 0.024096 0.136701 0.462042
2009-05-27 07:06:36 51°13.686 2°55.865 -999 0.024096 0.136703 0.462042
2009-05-27 07:06:42 51°13.688 2°55.859 -999 0.023993 0.136122 0.462042
2009-05-27 07:06:47 51°13.689 2°55.853 -999 0.024096 0.136706 0.462042
2009-05-27 07:06:51 51°13.69 2°55.848 -999 0.024096 0.136708 0.462042
2009-05-27 07:06:56 51°13.691 2°55.843 -999 0.024096 0.136708 0.462042
2009-05-27 07:07:02 51°13.692 2°55.836 -999 0.023993 0.136126 0.462042
2009-05-27 07:07:07 51°13.693 2°55.83 -999 0.023891 0.135542 0.462042
2009-05-27 07:07:11 51°13.694 2°55.825 -999 0.024096 0.136715 0.462042
2009-05-27 07:07:16 51°13.695 2°55.819 -999 0.023993 0.136134 0.462042
2009-05-27 07:07:22 51°13.696 2°55.812 -999 0.023993 0.136134 0.462042
2009-05-27 07:07:27 51°13.697 2°55.806 -999 0.023993 0.136134 0.462042
2009-05-27 07:07:31 51°13.698 2°55.802 -999 0.024096 0.13672 0.462042
2009-05-27 07:07:36 51°13.698 2°55.797 -999 0.023993 0.136136 0.462042
2009-05-27 07:07:42 51°13.699 2°55.79 -999 0.024096 0.136723 0.462042
2009-05-27 07:07:47 51°13.7 2°55.785 -999 0.024096 0.136723 0.462042
2009-05-27 07:07:51 51°13.7 2°55.781 -999 0.024199 0.137307 0.462042
2009-05-27 07:07:56 51°13.701 2°55.776 -999 0.024199 0.137307 0.462042
2009-05-27 07:08:01 51°13.701 2°55.772 -999 0.024096 0.136725 0.462042
2009-05-27 07:08:06 51°13.702 2°55.767 -999 0.024302 0.137896 0.462042
2009-05-27 07:08:11 51°13.703 2°55.764 -999 0.024508 0.139073 0.462042
2009-05-27 07:08:16 51°13.703 2°55.762 -999 0.024508 0.139083 0.462042
2009-05-27 07:08:20 51°13.703 2°55.762 -999 0.024405 0.138498 0.462042
2009-05-27 07:08:25 51°13.704 2°55.761 -999 0.024405 0.138498 0.462042
2009-05-27 07:08:30 51°13.705 2°55.76 -999 0.024199 0.137326 0.462042
2009-05-27 07:08:35 51°13.705 2°55.76 -999 0.024302 0.137911 0.462042
2009-05-27 07:08:40 51°13.706 2°55.76 -999 0.024199 0.137329 0.462042
2009-05-27 07:08:44 51°13.707 2°55.76 -999 0.024096 0.136739 0.462042
2009-05-27 07:08:49 51°13.707 2°55.76 -999 0.023993 0.136153 0.462042
2009-05-27 07:08:54 51°13.708 2°55.76 -999 0.023993 0.136153 0.462042
2009-05-27 07:08:59 51°13.708 2°55.759 -999 0.023788 0.134982 0.462042
2009-05-27 07:09:04 51°13.708 2°55.758 -999 0.023891 0.135564 0.462042
2009-05-27 07:09:08 51°13.708 2°55.758 -999 0.023685 0.134396 0.462042
2009-05-27 07:09:14 51°13.708 2°55.756 -999 0.023993 0.13615 0.462042
2009-05-27 07:09:19 51°13.708 2°55.755 -999 0.023891 0.135571 0.462042
2009-05-27 07:09:23 51°13.708 2°55.754 -999 0.023891 0.135571 0.462042
2009-05-27 07:09:28 51°13.707 2°55.752 -999 0.023788 0.134984 0.462042
2009-05-27 07:09:33 51°13.707 2°55.751 -999 0.023582 0.133814 0.462042
2009-05-27 07:09:38 51°13.706 2°55.749 -999 0.023891 0.135566 0.462042
2009-05-27 07:09:43 51°13.705 2°55.746 -999 0.024096 0.136742 0.462042
2009-05-27 07:09:48 51°13.704 2°55.745 -999 0.024199 0.137331 0.462042
2009-05-27 07:09:53 51°13.703 2°55.743 -999 0.024199 0.137331 0.462042
2009-05-27 07:09:58 51°13.702 2°55.742 -999 0.025022 0.14202 0.462042
2009-05-27 07:10:04 51°13.702 2°55.741 -999 0.025228 0.143212 0.462042
2009-05-27 07:10:08 51°13.703 2°55.741 -999 0.025743 0.146161 0.462042
2009-05-27 07:10:13 51°13.705 2°55.742 -999 0.025949 0.147346 0.462042
2009-05-27 07:10:18 51°13.707 2°55.742 -999 0.02636 0.149708 0.462042
2009-05-27 07:10:23 51°13.711 2°55.742 -999 0.02636 0.149708 0.462042
2009-05-27 07:10:28 51°13.715 2°55.741 -999 0.026154 0.148538 0.462042
2009-05-27 07:10:32 51°13.718 2°55.74 -999 0.025434 0.14442 0.462042
2009-05-27 07:10:38 51°13.724 2°55.737 -999 0.025331 0.143826 0.462042
2009-05-27 07:10:43 51°13.729 2°55.733 -999 0.025331 0.143823 0.462042
2009-05-27 07:10:48 51°13.734 2°55.728 -999 0.02492 0.141464 0.462042
2009-05-27 07:10:53 51°13.74 2°55.722 -999 0.02492 0.141464 0.462042
2009-05-27 07:10:58 51°13.746 2°55.716 -999 0.024611 0.139691 0.462042
2009-05-27 07:11:03 51°13.753 2°55.708 -999 0.024405 0.138506 0.462042
2009-05-27 07:11:08 51°13.761 2°55.701 -999 0.024302 0.137914 0.462042
2009-05-27 07:11:13 51°13.768 2°55.693 -999 0.024302 0.137906 0.462042
2009-05-27 07:11:18 51°13.776 2°55.685 -999 0.024405 0.138493 0.462042
2009-05-27 07:11:23 51°13.785 2°55.677 -999 0.024405 0.138493 0.462042
2009-05-27 07:11:28 51°13.793 2°55.669 -999 0.024199 0.137329 0.462042
2009-05-27 07:11:33 51°13.802 2°55.66 -999 0.024199 0.137331 0.462042
2009-05-27 07:11:38 51°13.811 2°55.652 -999 0.024199 0.137331 0.462042
2009-05-27 07:11:43 51°13.82 2°55.644 -999 0.024199 0.137339 0.462042
2009-05-27 07:11:48 51°13.83 2°55.637 -999 0.024096 0.136759 0.462042
2009-05-27 07:11:53 51°13.84 2°55.628 -999 0.024096 0.136759 0.462042
2009-05-27 07:11:58 51°13.85 2°55.621 -999 0.023891 0.135583 0.462042
2009-05-27 07:12:03 51°13.86 2°55.613 -999 0.023788 0.134996 0.462042
2009-05-27 07:12:08 51°13.87 2°55.605 -999 0.024302 0.137926 0.462042
2009-05-27 07:12:13 51°13.88 2°55.598 -999 0.024096 0.136764 0.462042
2009-05-27 07:12:18 51°13.891 2°55.59 -999 0.024302 0.137935 0.462042
2009-05-27 07:12:23 51°13.901 2°55.582 -999 0.024302 0.137935 0.462042
2009-05-27 07:12:28 51°13.912 2°55.574 -999 0.023993 0.136186 0.462042
2009-05-27 07:12:32 51°13.92 2°55.568 -999 0.024096 0.136771 0.462042
2009-05-27 07:12:38 51°13.933 2°55.559 -999 0.023993 0.136189 0.462042
2009-05-27 07:12:43 51°13.944 2°55.551 -999 0.024096 0.136771 0.462042
2009-05-27 07:12:48 51°13.955 2°55.542 -999 0.024508 0.139118 0.462042
2009-05-27 07:12:52 51°13.964 2°55.536 -999 0.024508 0.139118 0.462042
2009-05-27 07:12:58 51°13.977 2°55.526 -999 0.024096 0.13678 0.462042
2009-05-27 07:13:03 51°13.988 2°55.518 -999 0.024096 0.136778 0.462042
2009-05-27 07:13:08 51°13.999 2°55.511 -999 0.024405 0.138535 0.462042
2009-05-27 07:13:13 51°14.01 2°55.503 -999 0.024405 0.13854 0.462042
2009-05-27 07:13:18 51°14.02 2°55.494 -999 0.023788 0.135027 0.462042
2009-05-27 07:13:23 51°14.031 2°55.486 -999 0.023788 0.135027 0.462042
2009-05-27 07:13:28 51°14.042 2°55.478 -999 0.023788 0.135018 0.462042
2009-05-27 07:13:32 51°14.051 2°55.471 -999 0.024199 0.137363 0.462042
2009-05-27 07:13:38 51°14.064 2°55.462 -999 0.024096 0.136783 0.462042
2009-05-27 07:13:43 51°14.075 2°55.454 -999 0.024199 0.137368 0.462042
2009-05-27 07:13:48 51°14.086 2°55.446 -999 0.024096 0.136788 0.462042
2009-05-27 07:13:53 51°14.098 2°55.438 -999 0.024096 0.136788 0.462042
2009-05-27 07:13:58 51°14.109 2°55.429 -999 0.023891 0.135616 0.462042
2009-05-27 07:14:03 51°14.12 2°55.421 -999 0.024096 0.136785 0.462042
2009-05-27 07:14:08 51°14.132 2°55.413 -999 0.024508 0.139132 0.462042
2009-05-27 07:14:13 51°14.143 2°55.404 -999 0.023891 0.135623 0.462042
2009-05-27 07:14:18 51°14.154 2°55.395 -999 0.024508 0.13913 0.462042
2009-05-27 07:14:23 51°14.165 2°55.387 -999 0.024508 0.13913 0.462042
2009-05-27 07:14:28 51°14.176 2°55.378 -999 0.024405 0.138557 0.462042
2009-05-27 07:14:33 51°14.187 2°55.368 -999 0.025022 0.142085 0.462042
2009-05-27 07:14:38 51°14.198 2°55.358 -999 0.025125 0.142684 0.462042
2009-05-27 07:14:43 51°14.208 2°55.347 -999 0.025022 0.142098 0.462042
2009-05-27 07:14:48 51°14.218 2°55.335 -999 0.024199 0.137394 0.462042
2009-05-27 07:14:53 51°14.228 2°55.323 -999 0.024199 0.137394 0.462042
2009-05-27 07:14:58 51°14.237 2°55.31 -999 0.024096 0.136788 0.462042
2009-05-27 07:15:03 51°14.246 2°55.297 -999 0.024199 0.13736 0.462042
2009-05-27 07:15:08 51°14.255 2°55.283 -999 0.023891 0.135614 0.462042
2009-05-27 07:15:12 51°14.262 2°55.272 -999 0.024096 0.136776 0.462042
2009-05-27 07:15:18 51°14.272 2°55.254 -999 0.024302 0.137957 0.462042
2009-05-27 07:15:23 51°14.281 2°55.239 -999 0.024302 0.137957 0.462042
2009-05-27 07:15:28 51°14.289 2°55.224 -999 0.023788 0.135034 0.462042
2009-05-27 07:15:33 51°14.297 2°55.208 -999 0.024405 0.138547 0.462042
2009-05-27 07:15:38 51°14.305 2°55.192 -999 0.024817 0.140906 0.462042
2009-05-27 07:15:43 51°14.313 2°55.176 -999 0.024096 0.136814 0.462042
2009-05-27 07:15:48 51°14.32 2°55.159 -999 0.023376 0.132712 0.462042
2009-05-27 07:15:53 51°14.328 2°55.141 -999 0.023376 0.132712 0.462042
2009-05-27 07:15:58 51°14.335 2°55.124 -999 0.023685 0.134471 0.462042
2009-05-27 07:16:03 51°14.343 2°55.107 -999 0.023685 0.134469 0.462042
2009-05-27 07:16:08 51°14.351 2°55.09 -999 0.024302 0.137977 0.462042
2009-05-27 07:16:13 51°14.359 2°55.073 -999 0.024302 0.13797 0.462042
2009-05-27 07:16:18 51°14.367 2°55.057 -999 0.024817 0.140911 0.462042
2009-05-27 07:16:23 51°14.375 2°55.04 -999 0.024817 0.140911 0.462042
2009-05-27 07:16:28 51°14.382 2°55.023 -999 0.023891 0.135662 0.462042
2009-05-27 07:16:33 51°14.39 2°55.006 -999 0.023788 0.135079 0.462042
2009-05-27 07:16:38 51°14.399 2°54.99 -999 0.024096 0.136838 0.462042
2009-05-27 07:16:43 51°14.407 2°54.973 -999 0.023479 0.133336 0.462042
2009-05-27 07:16:48 51°14.415 2°54.956 -999 0.023376 0.132745 0.462042
2009-05-27 07:16:53 51°14.423 2°54.939 -999 0.023376 0.132745 0.462042
2009-05-27 07:16:58 51°14.432 2°54.922 -999 0.02317 0.131579 0.462042
2009-05-27 07:17:03 51°14.44 2°54.906 -999 0.023376 0.132749 0.462042
2009-05-27 07:17:08 51°14.45 2°54.89 -999 0.023788 0.135122 0.462042
2009-05-27 07:17:13 51°14.46 2°54.875 -999 0.023273 0.132251 0.462042
2009-05-27 07:17:18 51°14.47 2°54.86 -999 0.023376 0.132936 0.462042
2009-05-27 07:17:23 51°14.481 2°54.846 -999 0.023376 0.132936 0.462042
2009-05-27 07:17:28 51°14.493 2°54.831 -999 0.02317 0.131785 0.462042
2009-05-27 07:17:33 51°14.505 2°54.818 -999 0.023067 0.131226 0.462042
2009-05-27 07:17:38 51°14.517 2°54.804 -999 0.022964 0.130696 0.462042
2009-05-27 07:17:43 51°14.529 2°54.79 -999 0.023273 0.132428 0.462042
2009-05-27 07:17:48 51°14.541 2°54.777 -999 0.024302 0.13842 0.462042
2009-05-27 07:17:53 51°14.554 2°54.764 -999 0.024302 0.13842 0.462042
2009-05-27 07:17:58 51°14.567 2°54.752 -999 0.023582 0.134358 0.462042
2009-05-27 07:18:03 51°14.581 2°54.741 -999 0.024096 0.137338 0.462042
2009-05-27 07:18:08 51°14.594 2°54.729 -999 0.023376 0.133152 0.462042
2009-05-27 07:18:12 51°14.605 2°54.72 -999 0.023788 0.135534 0.462042
2009-05-27 07:18:18 51°14.622 2°54.707 -999 0.023788 0.135529 0.462042
2009-05-27 07:18:23 51°14.636 2°54.696 -999 0.023788 0.135529 0.462042
2009-05-27 07:18:28 51°14.65 2°54.684 -999 0.023273 0.13262 0.462042
2009-05-27 07:18:33 51°14.664 2°54.673 -999 0.023685 0.135157 0.462042
2009-05-27 07:18:38 51°14.679 2°54.661 -999 0.023685 0.135143 0.462042
2009-05-27 07:18:43 51°14.693 2°54.651 -999 0.023067 0.13165 0.427218
2009-05-27 07:18:48 51°14.708 2°54.639 -999 0.02317 0.132258 0.462042
2009-05-27 07:18:53 51°14.723 2°54.628 -999 0.02317 0.132258 0.462042
2009-05-27 07:18:58 51°14.737 2°54.615 -999 0.023273 0.132838 0.462042
2009-05-27 07:19:03 51°14.751 2°54.603 -999 0.023376 0.133293 0.462042
2009-05-27 07:19:08 51°14.766 2°54.59 -999 0.023479 0.13384 0.462042
2009-05-27 07:19:13 51°14.78 2°54.577 -999 0.023376 0.13327 0.462042
2009-05-27 07:19:18 51°14.794 2°54.564 -999 0.02317 0.132115 0.462042
2009-05-27 07:19:23 51°14.808 2°54.552 -999 0.02317 0.132115 0.462042
2009-05-27 07:19:28 51°14.822 2°54.539 -999 0.023273 0.132791 0.462042
2009-05-27 07:19:33 51°14.836 2°54.526 -999 0.023273 0.132824 0.462042
2009-05-27 07:19:38 51°14.85 2°54.512 -999 0.023582 0.134696 0.462042
2009-05-27 07:19:43 51°14.864 2°54.5 -999 0.023479 0.13417 0.462042
2009-05-27 07:19:48 51°14.878 2°54.489 -999 0.023582 0.134589 0.462042
2009-05-27 07:19:53 51°14.892 2°54.477 -999 0.023582 0.134589 0.462042
2009-05-27 07:19:58 51°14.907 2°54.466 -999 0.023479 0.134077 0.462042
2009-05-27 07:20:03 51°14.921 2°54.455 -999 0.023582 0.134656 0.462042
2009-05-27 07:20:08 51°14.936 2°54.444 -999 0.023582 0.13473 0.462042
2009-05-27 07:20:13 51°14.95 2°54.434 -999 0.023788 0.135975 0.462042
2009-05-27 07:20:18 51°14.964 2°54.424 -999 0.023376 0.133648 0.427218
2009-05-27 07:20:23 51°14.979 2°54.413 -999 0.023376 0.133648 0.427218
2009-05-27 07:20:28 51°14.994 2°54.403 -999 0.023479 0.134254 0.462042
2009-05-27 07:20:33 51°15.008 2°54.392 -999 0.02317 0.132464 0.427218
2009-05-27 07:20:38 51°15.023 2°54.381 -999 0.022964 0.131211 0.462042
2009-05-27 07:20:43 51°15.038 2°54.371 -999 0.02317 0.132396 0.462042
2009-05-27 07:20:48 51°15.052 2°54.36 -999 0.023582 0.134809 0.427218
2009-05-27 07:20:53 51°15.067 2°54.35 -999 0.023582 0.134809 0.427218
2009-05-27 07:20:58 51°15.081 2°54.34 -999 0.023582 0.134859 0.427218
2009-05-27 07:21:03 51°15.096 2°54.33 -999 0.023067 0.131935 0.462042
2009-05-27 07:21:08 51°15.11 2°54.319 -999 0.022964 0.131269 0.427218
2009-05-27 07:21:12 51°15.122 2°54.311 -999 0.022964 0.131228 0.462042
2009-05-27 07:21:18 51°15.139 2°54.298 -999 0.022964 0.131237 0.462042
2009-05-27 07:21:23 51°15.153 2°54.288 -999 0.022964 0.131237 0.462042
2009-05-27 07:21:28 51°15.168 2°54.277 -999 0.022964 0.131272 0.462042
2009-05-27 07:21:33 51°15.182 2°54.267 -999 0.023067 0.131935 0.462042
2009-05-27 07:21:38 51°15.197 2°54.256 -999 0.02317 0.132563 0.462042
2009-05-27 07:21:43 51°15.211 2°54.246 -999 0.022861 0.130793 0.427218
2009-05-27 07:21:48 51°15.225 2°54.234 -999 0.023067 0.131958 0.462042
2009-05-27 07:21:53 51°15.239 2°54.224 -999 0.023067 0.131958 0.462042
2009-05-27 07:21:58 51°15.253 2°54.212 -999 0.022861 0.130777 0.427218
2009-05-27 07:22:03 51°15.267 2°54.201 -999 0.023067 0.131942 0.462042
2009-05-27 07:22:08 51°15.281 2°54.189 -999 0.023067 0.131921 0.427218
2009-05-27 07:22:13 51°15.295 2°54.177 -999 0.02317 0.132488 0.427218
2009-05-27 07:22:18 51°15.309 2°54.165 -999 0.022861 0.130682 0.462042
2009-05-27 07:22:23 51°15.322 2°54.153 -999 0.022861 0.130682 0.462042
2009-05-27 07:22:28 51°15.336 2°54.14 -999 0.022861 0.130682 0.427218
2009-05-27 07:22:33 51°15.35 2°54.128 -999 0.023067 0.131869 0.462042
2009-05-27 07:22:38 51°15.363 2°54.115 -999 0.022861 0.13073 0.462042
2009-05-27 07:22:43 51°15.377 2°54.102 -999 0.023067 0.131937 0.462042
2009-05-27 07:22:48 51°15.39 2°54.089 -999 0.022861 0.130774 0.462042
2009-05-27 07:22:53 51°15.404 2°54.076 -999 0.022861 0.130774 0.462042
2009-05-27 07:22:58 51°15.417 2°54.063 -999 0.023067 0.131946 0.462042
2009-05-27 07:23:03 51°15.431 2°54.05 -999 0.022759 0.130179 0.427218
2009-05-27 07:23:08 51°15.445 2°54.037 -999 0.023788 0.136074 0.462042
2009-05-27 07:23:13 51°15.459 2°54.025 -999 0.023376 0.133736 0.427218
2009-05-27 07:23:18 51°15.473 2°54.012 -999 0.023273 0.13314 0.427218
2009-05-27 07:23:23 51°15.486 2°54 -999 0.023273 0.13314 0.427218
2009-05-27 07:23:28 51°15.5 2°53.987 -999 0.02317 0.132566 0.427218
2009-05-27 07:23:33 51°15.514 2°53.975 -999 0.023067 0.132003 0.462042
2009-05-27 07:23:38 51°15.528 2°53.962 -999 0.022964 0.131423 0.462042
2009-05-27 07:23:43 51°15.542 2°53.95 -999 0.023273 0.13318 0.462042
2009-05-27 07:23:48 51°15.556 2°53.937 -999 0.02317 0.132533 0.462042
2009-05-27 07:23:53 51°15.57 2°53.925 -999 0.02317 0.132533 0.462042
2009-05-27 07:23:58 51°15.583 2°53.912 -999 0.02317 0.132516 0.462042
2009-05-27 07:24:03 51°15.597 2°53.899 -999 0.022861 0.130751 0.427218
2009-05-27 07:24:08 51°15.61 2°53.886 -999 0.022964 0.131351 0.427218
2009-05-27 07:24:12 51°15.622 2°53.877 -999 0.023376 0.133734 0.427218
2009-05-27 07:24:18 51°15.638 2°53.861 -999 0.022964 0.131381 0.462042
2009-05-27 07:24:23 51°15.652 2°53.848 -999 0.022964 0.131381 0.462042
2009-05-27 07:24:28 51°15.666 2°53.836 -999 0.022759 0.1302 0.462042
2009-05-27 07:24:33 51°15.68 2°53.823 -999 0.022656 0.129596 0.462042
2009-05-27 07:24:38 51°15.693 2°53.81 -999 0.022759 0.130177 0.462042
2009-05-27 07:24:43 51°15.707 2°53.797 -999 0.022656 0.129591 0.462042
2009-05-27 07:24:48 51°15.72 2°53.784 -999 0.022861 0.130753 0.427218
2009-05-27 07:24:53 51°15.734 2°53.77 -999 0.022861 0.130753 0.427218
2009-05-27 07:24:58 51°15.748 2°53.756 -999 0.022656 0.129596 0.462042
2009-05-27 07:25:03 51°15.761 2°53.742 -999 0.022964 0.131365 0.462042
2009-05-27 07:25:08 51°15.775 2°53.729 -999 0.023685 0.135516 0.462042
2009-05-27 07:25:13 51°15.788 2°53.715 -999 0.023273 0.133128 0.427218
2009-05-27 07:25:18 51°15.802 2°53.702 -999 0.022964 0.131386 0.427218
2009-05-27 07:25:23 51°15.816 2°53.688 -999 0.022964 0.131386 0.427218
2009-05-27 07:25:28 51°15.829 2°53.675 -999 0.02317 0.132613 0.427218
2009-05-27 07:25:33 51°15.843 2°53.661 -999 0.02317 0.132603 0.427218
2009-05-27 07:25:38 51°15.856 2°53.648 -999 0.022964 0.131421 0.427218
2009-05-27 07:25:43 51°15.87 2°53.634 -999 0.022964 0.131416 0.427218
2009-05-27 07:25:48 51°15.883 2°53.621 -999 0.022861 0.13083 0.427218
2009-05-27 07:25:53 51°15.897 2°53.608 -999 0.022861 0.13083 0.427218
2009-05-27 07:25:58 51°15.911 2°53.594 -999 0.023273 0.133211 0.427218
2009-05-27 07:26:03 51°15.924 2°53.581 -999 0.02317 0.132627 0.427218
2009-05-27 07:26:08 51°15.938 2°53.568 -999 0.022861 0.130865 0.462042
2009-05-27 07:26:13 51°15.951 2°53.555 -999 0.022759 0.130269 0.427218
2009-05-27 07:26:18 51°15.965 2°53.541 -999 0.022861 0.130855 0.427218
2009-05-27 07:26:23 51°15.978 2°53.528 -999 0.022861 0.130855 0.427218
2009-05-27 07:26:28 51°15.992 2°53.514 -999 0.022759 0.130251 0.427218
2009-05-27 07:26:33 51°16.005 2°53.501 -999 0.022964 0.131449 0.427218
2009-05-27 07:26:38 51°16.019 2°53.487 -999 0.022759 0.130276 0.427218
2009-05-27 07:26:43 51°16.033 2°53.474 -999 0.022656 0.129676 0.427218
2009-05-27 07:26:48 51°16.047 2°53.46 -999 0.022656 0.129681 0.427218
2009-05-27 07:26:53 51°16.06 2°53.447 -999 0.022656 0.129681 0.427218
2009-05-27 07:26:58 51°16.074 2°53.433 -999 0.022656 0.129623 0.427218
2009-05-27 07:27:03 51°16.088 2°53.419 -999 0.022553 0.129035 0.427218
2009-05-27 07:27:08 51°16.102 2°53.406 -999 0.022656 0.129619 0.427218
2009-05-27 07:27:12 51°16.112 2°53.395 -999 0.023067 0.131998 0.427218
2009-05-27 07:27:18 51°16.129 2°53.379 -999 0.023067 0.132014 0.427218
2009-05-27 07:27:23 51°16.143 2°53.365 -999 0.023067 0.132014 0.427218
2009-05-27 07:27:28 51°16.157 2°53.351 -999 0.022861 0.130848 0.427218
2009-05-27 07:27:33 51°16.171 2°53.338 -999 0.023067 0.132019 0.427218
2009-05-27 07:27:38 51°16.184 2°53.324 -999 0.02317 0.132622 0.427218
2009-05-27 07:27:43 51°16.198 2°53.31 -999 0.02317 0.13265 0.427218
2009-05-27 07:27:48 51°16.212 2°53.297 -999 0.022861 0.1309 0.427218
2009-05-27 07:27:53 51°16.226 2°53.283 -999 0.022861 0.1309 0.427218
2009-05-27 07:27:58 51°16.24 2°53.27 -999 0.022759 0.130322 0.427218
2009-05-27 07:28:03 51°16.254 2°53.256 -999 0.022759 0.130329 0.427218
2009-05-27 07:28:08 51°16.267 2°53.242 -999 0.022861 0.130893 0.427218
2009-05-27 07:28:13 51°16.281 2°53.228 -999 0.022759 0.130336 0.427218
2009-05-27 07:28:18 51°16.294 2°53.214 -999 0.023273 0.133282 0.462042
2009-05-27 07:28:23 51°16.308 2°53.2 -999 0.023273 0.133282 0.462042
2009-05-27 07:28:28 51°16.322 2°53.187 -999 0.022656 0.129754 0.427218
2009-05-27 07:28:33 51°16.335 2°53.173 -999 0.022656 0.129738 0.427218
2009-05-27 07:28:38 51°16.35 2°53.159 -999 0.022964 0.131456 0.427218
2009-05-27 07:28:43 51°16.364 2°53.147 -999 0.023376 0.133862 0.427218
2009-05-27 07:28:48 51°16.377 2°53.134 -999 0.023273 0.133292 0.427218
2009-05-27 07:28:53 51°16.392 2°53.121 -999 0.023273 0.133292 0.427218
2009-05-27 07:28:58 51°16.406 2°53.11 -999 0.023993 0.137447 0.427218
2009-05-27 07:29:03 51°16.42 2°53.097 -999 0.024199 0.138636 0.427218
2009-05-27 07:29:08 51°16.434 2°53.086 -999 0.023891 0.136881 0.462042
2009-05-27 07:29:13 51°16.448 2°53.074 -999 0.023891 0.136854 0.427218
2009-05-27 07:29:18 51°16.462 2°53.063 -999 0.023479 0.134498 0.427218
2009-05-27 07:29:23 51°16.476 2°53.051 -999 0.023479 0.134498 0.427218
2009-05-27 07:29:28 51°16.491 2°53.04 -999 0.024302 0.139242 0.427218
2009-05-27 07:29:33 51°16.505 2°53.029 -999 0.023479 0.134543 0.427218
2009-05-27 07:29:38 51°16.519 2°53.018 -999 0.023788 0.136317 0.427218
2009-05-27 07:29:43 51°16.533 2°53.007 -999 0.023479 0.134543 0.427218
2009-05-27 07:29:48 51°16.548 2°52.995 -999 0.023582 0.135112 0.427218
2009-05-27 07:29:53 51°16.562 2°52.984 -999 0.023582 0.135112 0.427218
2009-05-27 07:29:58 51°16.576 2°52.973 -999 0.023788 0.13629 0.427218
2009-05-27 07:30:03 51°16.591 2°52.962 -999 0.023376 0.133932 0.427218
2009-05-27 07:30:08 51°16.605 2°52.951 -999 0.023067 0.13216 0.427218
2009-05-27 07:30:12 51°16.617 2°52.942 -999 0.023273 0.133392 0.427218
2009-05-27 07:30:18 51°16.635 2°52.929 -999 0.023479 0.134567 0.427218
2009-05-27 07:30:23 51°16.649 2°52.918 -999 0.023479 0.134567 0.427218
2009-05-27 07:30:28 51°16.664 2°52.907 -999 0.023376 0.133996 0.427218
2009-05-27 07:30:33 51°16.678 2°52.896 -999 0.023376 0.134001 0.427218
2009-05-27 07:30:38 51°16.692 2°52.885 -999 0.02317 0.132816 0.427218
2009-05-27 07:30:43 51°16.707 2°52.874 -999 0.023067 0.132214 0.427218
2009-05-27 07:30:48 51°16.721 2°52.863 -999 0.02317 0.132794 0.427218
2009-05-27 07:30:53 51°16.736 2°52.851 -999 0.02317 0.132794 0.427218
2009-05-27 07:30:58 51°16.75 2°52.84 -999 0.023376 0.133979 0.427218
2009-05-27 07:31:03 51°16.764 2°52.83 -999 0.025434 0.145842 0.427218
2009-05-27 07:31:08 51°16.779 2°52.819 -999 0.024302 0.13929 0.427218
2009-05-27 07:31:13 51°16.793 2°52.808 -999 0.024508 0.140458 0.427218
2009-05-27 07:31:18 51°16.808 2°52.798 -999 0.023685 0.135717 0.427218
2009-05-27 07:31:23 51°16.822 2°52.787 -999 0.023685 0.135717 0.427218
2009-05-27 07:31:28 51°16.836 2°52.777 -999 0.023582 0.135119 0.427218
2009-05-27 07:31:33 51°16.85 2°52.766 -999 0.023891 0.13692 0.427218
2009-05-27 07:31:38 51°16.865 2°52.755 -999 0.023582 0.13517 0.427218
2009-05-27 07:31:43 51°16.879 2°52.744 -999 0.023685 0.135768 0.427218
2009-05-27 07:31:48 51°16.893 2°52.734 -999 0.025434 0.145832 0.427218
2009-05-27 07:31:53 51°16.908 2°52.723 -999 0.025434 0.145832 0.427218
2009-05-27 07:31:58 51°16.922 2°52.712 -999 0.025023 0.143458 0.392394
2009-05-27 07:32:03 51°16.936 2°52.702 -999 0.02564 0.147039 0.427218
2009-05-27 07:32:08 51°16.95 2°52.69 -999 0.028007 0.160727 0.392394
2009-05-27 07:32:13 51°16.965 2°52.681 -999 0.025846 0.148226 0.427218
2009-05-27 07:32:18 51°16.979 2°52.67 -999 0.025743 0.147619 0.427218
2009-05-27 07:32:23 51°16.994 2°52.659 -999 0.025743 0.147619 0.427218
2009-05-27 07:32:28 51°17.008 2°52.649 -999 0.025743 0.147627 0.427218
2009-05-27 07:32:33 51°17.022 2°52.638 -999 0.02492 0.142879 0.427218
2009-05-27 07:32:38 51°17.036 2°52.626 -999 0.025228 0.144656 0.427218
2009-05-27 07:32:43 51°17.05 2°52.615 -999 0.02564 0.147036 0.427218
2009-05-27 07:32:48 51°17.065 2°52.605 -999 0.02492 0.142899 0.427218
2009-05-27 07:32:53 51°17.079 2°52.594 -999 0.02492 0.142899 0.427218
2009-05-27 07:32:58 51°17.093 2°52.583 -999 0.025023 0.143495 0.427218
2009-05-27 07:33:03 51°17.108 2°52.573 -999 0.025331 0.14527 0.427218
2009-05-27 07:33:08 51°17.122 2°52.562 -999 0.024302 0.139355 0.427218
2009-05-27 07:33:12 51°17.133 2°52.553 -999 0.024817 0.142317 0.392394
2009-05-27 07:33:18 51°17.151 2°52.541 -999 0.024302 0.139375 0.427218
2009-05-27 07:33:23 51°17.165 2°52.53 -999 0.024302 0.139375 0.427218
2009-05-27 07:33:28 51°17.179 2°52.519 -999 0.024508 0.140553 0.392394
2009-05-27 07:33:33 51°17.193 2°52.508 -999 0.02492 0.142941 0.427218
2009-05-27 07:33:38 51°17.208 2°52.497 -999 0.024611 0.141171 0.392394
2009-05-27 07:33:43 51°17.223 2°52.486 -999 0.024405 0.139987 0.392394
2009-05-27 07:33:48 51°17.237 2°52.475 -999 0.024508 0.140571 0.427218
2009-05-27 07:33:53 51°17.251 2°52.465 -999 0.024508 0.140571 0.427218
2009-05-27 07:33:58 51°17.266 2°52.454 -999 0.025023 0.143531 0.427218
2009-05-27 07:34:03 51°17.28 2°52.443 -999 0.024199 0.138793 0.427218
2009-05-27 07:34:08 51°17.295 2°52.432 -999 0.025125 0.144131 0.427218
2009-05-27 07:34:13 51°17.309 2°52.421 -999 0.025023 0.143526 0.392394
2009-05-27 07:34:18 51°17.324 2°52.41 -999 0.024817 0.142305 0.427218
2009-05-27 07:34:23 51°17.338 2°52.398 -999 0.024817 0.142305 0.427218
2009-05-27 07:34:28 51°17.351 2°52.385 -999 0.025743 0.147651 0.392394
2009-05-27 07:34:33 51°17.365 2°52.373 -999 0.024714 0.141735 0.392394
2009-05-27 07:34:38 51°17.379 2°52.359 -999 0.023993 0.137605 0.392394
2009-05-27 07:34:43 51°17.392 2°52.346 -999 0.024302 0.13937 0.427218
2009-05-27 07:34:48 51°17.405 2°52.333 -999 0.023891 0.136989 0.392394
2009-05-27 07:34:53 51°17.418 2°52.319 -999 0.023891 0.136989 0.392394
2009-05-27 07:34:58 51°17.432 2°52.305 -999 0.024096 0.138194 0.392394
2009-05-27 07:35:03 51°17.444 2°52.291 -999 0.024096 0.138199 0.392394
2009-05-27 07:35:08 51°17.457 2°52.277 -999 0.023993 0.137607 0.392394
2009-05-27 07:35:13 51°17.47 2°52.262 -999 0.024199 0.138788 0.392394
2009-05-27 07:35:18 51°17.483 2°52.247 -999 0.024096 0.138189 0.392394
2009-05-27 07:35:23 51°17.496 2°52.233 -999 0.024096 0.138189 0.392394
2009-05-27 07:35:28 51°17.509 2°52.218 -999 0.024405 0.139989 0.392394
2009-05-27 07:35:33 51°17.522 2°52.203 -999 0.024199 0.138808 0.427218
2009-05-27 07:35:38 51°17.535 2°52.189 -999 0.023788 0.136442 0.392394
2009-05-27 07:35:43 51°17.547 2°52.174 -999 0.024302 0.1394 0.392394
2009-05-27 07:35:48 51°17.56 2°52.16 -999 0.023685 0.135875 0.392394
2009-05-27 07:35:53 51°17.573 2°52.144 -999 0.023685 0.135875 0.392394
2009-05-27 07:35:58 51°17.586 2°52.13 -999 0.024302 0.139447 0.392394
2009-05-27 07:36:03 51°17.599 2°52.116 -999 0.023891 0.137087 0.392394
2009-05-27 07:36:08 51°17.613 2°52.101 -999 0.024096 0.138268 0.392394
2009-05-27 07:36:12 51°17.623 2°52.09 -999 0.023685 0.135892 0.392394
2009-05-27 07:36:18 51°17.639 2°52.074 -999 0.023479 0.13468 0.392394
2009-05-27 07:36:23 51°17.651 2°52.059 -999 0.023479 0.13468 0.392394
2009-05-27 07:36:28 51°17.664 2°52.044 -999 0.023479 0.134685 0.392394
2009-05-27 07:36:33 51°17.677 2°52.029 -999 0.024096 0.138246 0.392394
2009-05-27 07:36:38 51°17.69 2°52.015 -999 0.023685 0.135865 0.427218
2009-05-27 07:36:43 51°17.702 2°52.001 -999 0.023685 0.135901 0.427218
2009-05-27 07:36:48 51°17.715 2°51.986 -999 0.023582 0.135327 0.392394
2009-05-27 07:36:53 51°17.728 2°51.972 -999 0.023582 0.135327 0.392394
2009-05-27 07:36:58 51°17.741 2°51.957 -999 0.023891 0.137109 0.392394
2009-05-27 07:37:03 51°17.754 2°51.943 -999 0.023685 0.135926 0.392394
2009-05-27 07:37:08 51°17.767 2°51.929 -999 0.024405 0.140065 0.392394
2009-05-27 07:37:13 51°17.78 2°51.914 -999 0.023788 0.136503 0.392394
2009-05-27 07:37:18 51°17.793 2°51.9 -999 0.024405 0.140022 0.392394
2009-05-27 07:37:23 51°17.805 2°51.885 -999 0.024405 0.140022 0.392394
2009-05-27 07:37:28 51°17.819 2°51.87 -999 0.025331 0.14538 0.392394
2009-05-27 07:37:33 51°17.831 2°51.856 -999 0.024199 0.138873 0.392394
2009-05-27 07:37:38 51°17.844 2°51.841 -999 0.024199 0.138865 0.392394
2009-05-27 07:37:43 51°17.857 2°51.827 -999 0.024302 0.139455 0.392394
2009-05-27 07:37:48 51°17.871 2°51.812 -999 0.023685 0.135914 0.392394
2009-05-27 07:37:53 51°17.884 2°51.797 -999 0.023685 0.135914 0.392394
2009-05-27 07:37:58 51°17.897 2°51.784 -999 0.024199 0.138895 0.392394
2009-05-27 07:38:03 51°17.91 2°51.769 -999 0.023685 0.135931 0.392394
2009-05-27 07:38:08 51°17.923 2°51.754 -999 0.025331 0.145422 0.392394
2009-05-27 07:38:13 51°17.936 2°51.739 -999 0.023993 0.137706 0.392394
2009-05-27 07:38:18 51°17.949 2°51.725 -999 0.023788 0.1365 0.392394
2009-05-27 07:38:23 51°17.962 2°51.711 -999 0.023788 0.1365 0.392394
2009-05-27 07:38:28 51°17.976 2°51.698 -999 0.024096 0.138276 0.392394
2009-05-27 07:38:33 51°17.988 2°51.682 -999 0.024096 0.138266 0.392394
2009-05-27 07:38:38 51°18.001 2°51.668 -999 0.023685 0.135909 0.392394
2009-05-27 07:38:43 51°18.014 2°51.653 -999 0.023993 0.137701 0.392394
2009-05-27 07:38:48 51°18.027 2°51.638 -999 0.024096 0.138273 0.392394
2009-05-27 07:38:53 51°18.04 2°51.624 -999 0.024096 0.138273 0.392394
2009-05-27 07:38:58 51°18.053 2°51.609 -999 0.023788 0.136505 0.392394
2009-05-27 07:39:03 51°18.067 2°51.595 -999 0.024302 0.139472 0.392394
2009-05-27 07:39:08 51°18.08 2°51.581 -999 0.024199 0.138888 0.392394
2009-05-27 07:39:12 51°18.091 2°51.569 -999 0.024302 0.139482 0.392394
2009-05-27 07:39:18 51°18.106 2°51.551 -999 0.024405 0.140052 0.392394
2009-05-27 07:39:23 51°18.119 2°51.537 -999 0.024405 0.140052 0.392394
2009-05-27 07:39:28 51°18.133 2°51.522 -999 0.024096 0.138288 0.392394
2009-05-27 07:39:33 51°18.146 2°51.508 -999 0.023685 0.135921 0.392394
2009-05-27 07:39:38 51°18.159 2°51.494 -999 0.023788 0.136517 0.392394
2009-05-27 07:39:43 51°18.172 2°51.478 -999 0.024611 0.141265 0.392394
2009-05-27 07:39:48 51°18.185 2°51.463 -999 0.024096 0.138323 0.392394
2009-05-27 07:39:53 51°18.198 2°51.448 -999 0.024096 0.138323 0.392394
2009-05-27 07:39:58 51°18.211 2°51.433 -999 0.024508 0.140705 0.392394
2009-05-27 07:40:03 51°18.224 2°51.418 -999 0.023582 0.135373 0.392394
2009-05-27 07:40:08 51°18.237 2°51.403 -999 0.024302 0.13951 0.392394
2009-05-27 07:40:13 51°18.251 2°51.389 -999 0.023788 0.136537 0.392394
2009-05-27 07:40:18 51°18.264 2°51.373 -999 0.024817 0.142479 0.392394
2009-05-27 07:40:23 51°18.277 2°51.359 -999 0.024817 0.142479 0.392394
2009-05-27 07:40:28 51°18.29 2°51.343 -999 0.023891 0.137143 0.392394
2009-05-27 07:40:33 51°18.303 2°51.328 -999 0.023891 0.137139 0.392394
2009-05-27 07:40:38 51°18.317 2°51.312 -999 0.024199 0.138925 0.392394
2009-05-27 07:40:43 51°18.33 2°51.297 -999 0.023685 0.135955 0.392394
2009-05-27 07:40:48 51°18.342 2°51.282 -999 0.023479 0.134765 0.392394
2009-05-27 07:40:53 51°18.356 2°51.268 -999 0.023479 0.134765 0.392394
2009-05-27 07:40:58 51°18.369 2°51.253 -999 0.023376 0.134164 0.392394
2009-05-27 07:41:03 51°18.382 2°51.238 -999 0.024199 0.138905 0.392394
2009-05-27 07:41:08 51°18.395 2°51.223 -999 0.023685 0.135979 0.392394
2009-05-27 07:41:13 51°18.408 2°51.208 -999 0.024096 0.138343 0.392394
2009-05-27 07:41:18 51°18.421 2°51.192 -999 0.025949 0.149027 0.392394
2009-05-27 07:41:23 51°18.434 2°51.178 -999 0.025949 0.149027 0.392394
2009-05-27 07:41:28 51°18.447 2°51.163 -999 0.025846 0.148416 0.392394
2009-05-27 07:41:33 51°18.46 2°51.148 -999 0.025846 0.148408 0.392394
2009-05-27 07:41:38 51°18.473 2°51.133 -999 0.025331 0.145436 0.392394
2009-05-27 07:41:43 51°18.487 2°51.118 -999 0.024405 0.14009 0.392394
2009-05-27 07:41:48 51°18.5 2°51.103 -999 0.024714 0.141865 0.392394
2009-05-27 07:41:53 51°18.513 2°51.088 -999 0.024714 0.141865 0.392394
2009-05-27 07:41:58 51°18.526 2°51.073 -999 0.024817 0.142466 0.392394
2009-05-27 07:42:03 51°18.539 2°51.058 -999 0.024302 0.139505 0.392394
2009-05-27 07:42:08 51°18.552 2°51.043 -999 0.024199 0.138907 0.35757
2009-05-27 07:42:12 51°18.563 2°51.03 -999 0.024508 0.140687 0.392394
2009-05-27 07:42:18 51°18.578 2°51.012 -999 0.024405 0.14012 0.392394
2009-05-27 07:42:23 51°18.592 2°50.997 -999 0.024405 0.14012 0.392394
2009-05-27 07:42:28 51°18.605 2°50.982 -999 0.024405 0.140143 0.392394
2009-05-27 07:42:33 51°18.618 2°50.966 -999 0.024508 0.14072 0.35757
2009-05-27 07:42:38 51°18.631 2°50.951 -999 0.024302 0.139545 0.392394
2009-05-27 07:42:43 51°18.644 2°50.936 -999 0.024302 0.139555 0.35757
2009-05-27 07:42:48 51°18.657 2°50.922 -999 0.023788 0.136598 0.427218
2009-05-27 07:42:53 51°18.67 2°50.907 -999 0.023788 0.136598 0.427218
2009-05-27 07:42:58 51°18.683 2°50.892 -999 0.023788 0.136586 0.392394
2009-05-27 07:43:03 51°18.696 2°50.876 -999 0.023685 0.135999 0.392394
2009-05-27 07:43:08 51°18.709 2°50.861 -999 0.024302 0.139575 0.35757
2009-05-27 07:43:13 51°18.723 2°50.847 -999 0.023993 0.137795 0.392394
2009-05-27 07:43:18 51°18.735 2°50.832 -999 0.023993 0.13779 0.35757
2009-05-27 07:43:23 51°18.749 2°50.816 -999 0.023993 0.13779 0.35757
2009-05-27 07:43:28 51°18.761 2°50.801 -999 0.026463 0.152051 0.392394
2009-05-27 07:43:33 51°18.775 2°50.786 -999 0.024508 0.140761 0.392394
2009-05-27 07:43:38 51°18.787 2°50.77 -999 0.024508 0.140746 0.35757
2009-05-27 07:43:43 51°18.801 2°50.755 -999 0.024302 0.139558 0.392394
2009-05-27 07:43:48 51°18.814 2°50.739 -999 0.023993 0.137765 0.392394
2009-05-27 07:43:53 51°18.827 2°50.723 -999 0.023993 0.137765 0.392394
2009-05-27 07:43:58 51°18.84 2°50.708 -999 0.024302 0.139535 0.392394
2009-05-27 07:44:03 51°18.853 2°50.693 -999 0.023891 0.137173 0.392394
2009-05-27 07:44:08 51°18.866 2°50.678 -999 0.023582 0.135395 0.392394
2009-05-27 07:44:13 51°18.879 2°50.662 -999 0.024611 0.141331 0.392394
2009-05-27 07:44:18 51°18.893 2°50.648 -999 0.024508 0.140761 0.392394
2009-05-27 07:44:23 51°18.906 2°50.633 -999 0.024508 0.140761 0.392394
2009-05-27 07:44:28 51°18.919 2°50.618 -999 0.024611 0.141382 0.392394
2009-05-27 07:44:33 51°18.932 2°50.603 -999 0.023891 0.137232 0.392394
2009-05-27 07:44:38 51°18.945 2°50.587 -999 0.024096 0.138407 0.392394
2009-05-27 07:44:43 51°18.958 2°50.572 -999 0.024714 0.14196 0.35757
2009-05-27 07:44:48 51°18.971 2°50.557 -999 0.025743 0.147908 0.392394
2009-05-27 07:44:53 51°18.985 2°50.542 -999 0.025743 0.147908 0.392394
2009-05-27 07:44:58 51°18.998 2°50.527 -999 0.025023 0.143751 0.35757
2009-05-27 07:45:03 51°19.011 2°50.512 -999 0.024508 0.140791 0.392394
2009-05-27 07:45:08 51°19.024 2°50.497 -999 0.024199 0.138997 0.392394
2009-05-27 07:45:12 51°19.035 2°50.484 -999 0.024302 0.13959 0.392394
2009-05-27 07:45:18 51°19.05 2°50.467 -999 0.023993 0.13781 0.392394
2009-05-27 07:45:23 51°19.063 2°50.452 -999 0.023993 0.13781 0.392394
2009-05-27 07:45:28 51°19.076 2°50.438 -999 0.024817 0.142564 0.392394
2009-05-27 07:45:33 51°19.09 2°50.424 -999 0.024302 0.139595 0.392394
2009-05-27 07:45:38 51°19.102 2°50.409 -999 0.024714 0.14197 0.392394
2009-05-27 07:45:43 51°19.115 2°50.394 -999 0.023891 0.137232 0.392394
2009-05-27 07:45:48 51°19.128 2°50.379 -999 0.023788 0.136637 0.392394
2009-05-27 07:45:53 51°19.141 2°50.364 -999 0.023788 0.136637 0.392394
2009-05-27 07:45:58 51°19.154 2°50.348 -999 0.023788 0.136635 0.392394
2009-05-27 07:46:03 51°19.167 2°50.333 -999 0.023788 0.136632 0.35757
2009-05-27 07:46:08 51°19.18 2°50.318 -999 0.024611 0.141385 0.392394
2009-05-27 07:46:13 51°19.194 2°50.302 -999 0.023479 0.134868 0.392394
2009-05-27 07:46:18 51°19.206 2°50.286 -999 0.025023 0.143772 0.392394
2009-05-27 07:46:23 51°19.22 2°50.271 -999 0.025023 0.143772 0.392394
2009-05-27 07:46:28 51°19.233 2°50.255 -999 0.023788 0.136635 0.392394
2009-05-27 07:46:33 51°19.246 2°50.24 -999 0.023582 0.135453 0.392394
2009-05-27 07:46:38 51°19.259 2°50.225 -999 0.024405 0.140198 0.392394
2009-05-27 07:46:43 51°19.272 2°50.21 -999 0.025537 0.146722 0.392394
2009-05-27 07:46:48 51°19.285 2°50.195 -999 0.024611 0.141385 0.35757
2009-05-27 07:46:53 51°19.298 2°50.18 -999 0.024611 0.141385 0.35757
2009-05-27 07:46:58 51°19.311 2°50.166 -999 0.027698 0.159256 0.392394
2009-05-27 07:47:03 51°19.324 2°50.15 -999 0.025228 0.144947 0.392394
2009-05-27 07:47:08 51°19.336 2°50.135 -999 0.025846 0.148527 0.392394
2009-05-27 07:47:13 51°19.349 2°50.12 -999 0.024714 0.141996 0.392394
2009-05-27 07:47:18 51°19.362 2°50.104 -999 0.02492 0.143188 0.392394
2009-05-27 07:47:23 51°19.375 2°50.089 -999 0.02492 0.143188 0.392394
2009-05-27 07:47:28 51°19.388 2°50.074 -999 0.024611 0.141408 0.392394
2009-05-27 07:47:33 51°19.401 2°50.058 -999 0.024714 0.141999 0.392394
2009-05-27 07:47:38 51°19.414 2°50.043 -999 0.024302 0.139625 0.35757
2009-05-27 07:47:43 51°19.428 2°50.027 -999 0.024817 0.142592 0.392394
2009-05-27 07:47:48 51°19.441 2°50.012 -999 0.024302 0.139625 0.392394
2009-05-27 07:47:53 51°19.454 2°49.996 -999 0.024302 0.139625 0.392394
2009-05-27 07:47:58 51°19.468 2°49.981 -999 0.023993 0.137864 0.35757
2009-05-27 07:48:03 51°19.481 2°49.966 -999 0.024714 0.142024 0.392394
2009-05-27 07:48:08 51°19.495 2°49.951 -999 0.024199 0.13906 0.392394
2009-05-27 07:48:13 51°19.508 2°49.935 -999 0.026875 0.154515 0.392394
2009-05-27 07:48:18 51°19.522 2°49.921 -999 0.025434 0.146178 0.392394
2009-05-27 07:48:23 51°19.535 2°49.905 -999 0.025434 0.146178 0.392394
2009-05-27 07:48:28 51°19.548 2°49.891 -999 0.025434 0.146175 0.392394
2009-05-27 07:48:33 51°19.562 2°49.876 -999 0.024405 0.140226 0.392394
2009-05-27 07:48:38 51°19.575 2°49.861 -999 0.024096 0.138442 0.392394
2009-05-27 07:48:43 51°19.588 2°49.846 -999 0.024508 0.140804 0.392394
2009-05-27 07:48:48 51°19.602 2°49.831 -999 0.024508 0.140807 0.392394
2009-05-27 07:48:53 51°19.614 2°49.815 -999 0.024508 0.140807 0.392394
2009-05-27 07:48:58 51°19.628 2°49.8 -999 0.024199 0.139047 0.35757
2009-05-27 07:49:03 51°19.641 2°49.784 -999 0.025331 0.145607 0.392394
2009-05-27 07:49:08 51°19.655 2°49.77 -999 0.023788 0.136711 0.392394
2009-05-27 07:49:13 51°19.668 2°49.754 -999 0.023993 0.137882 0.392394
2009-05-27 07:49:18 51°19.681 2°49.739 -999 0.023891 0.137281 0.392394
2009-05-27 07:49:23 51°19.694 2°49.724 -999 0.023891 0.137281 0.392394
2009-05-27 07:49:28 51°19.707 2°49.709 -999 0.023685 0.136096 0.392394
2009-05-27 07:49:33 51°19.72 2°49.693 -999 0.024611 0.141438 0.392394
2009-05-27 07:49:38 51°19.734 2°49.679 -999 0.023685 0.136113 0.392394
2009-05-27 07:49:43 51°19.747 2°49.664 -999 0.023788 0.136711 0.35757
2009-05-27 07:49:48 51°19.76 2°49.649 -999 0.023993 0.137906 0.392394
2009-05-27 07:49:53 51°19.773 2°49.634 -999 0.023993 0.137906 0.392394
2009-05-27 07:49:58 51°19.786 2°49.618 -999 0.023479 0.134931 0.392394
2009-05-27 07:50:03 51°19.8 2°49.603 -999 0.023993 0.137899 0.392394
2009-05-27 07:50:08 51°19.813 2°49.587 -999 0.023993 0.137904 0.392394
2009-05-27 07:50:13 51°19.826 2°49.572 -999 0.023891 0.137311 0.392394
2009-05-27 07:50:18 51°19.839 2°49.557 -999 0.023376 0.134346 0.392394
2009-05-27 07:50:23 51°19.852 2°49.542 -999 0.023376 0.134346 0.392394
2009-05-27 07:50:28 51°19.866 2°49.526 -999 0.023273 0.133749 0.392394
2009-05-27 07:50:33 51°19.879 2°49.512 -999 0.02492 0.143243 0.392394
2009-05-27 07:50:38 51°19.892 2°49.497 -999 0.023891 0.137294 0.35757
2009-05-27 07:50:43 51°19.905 2°49.481 -999 0.024302 0.139666 0.35757
2009-05-27 07:50:48 51°19.918 2°49.467 -999 0.023788 0.136706 0.35757
2009-05-27 07:50:53 51°19.931 2°49.452 -999 0.023788 0.136706 0.35757
2009-05-27 07:50:58 51°19.944 2°49.437 -999 0.023582 0.135489 0.392394
2009-05-27 07:51:03 51°19.957 2°49.422 -999 0.023685 0.136072 0.35757
2009-05-27 07:51:08 51°19.97 2°49.407 -999 0.023993 0.137859 0.392394
2009-05-27 07:51:13 51°19.983 2°49.392 -999 0.023582 0.135492 0.392394
2009-05-27 07:51:18 51°19.995 2°49.377 -999 0.024508 0.140842 0.35757
2009-05-27 07:51:23 51°20.009 2°49.362 -999 0.024508 0.140842 0.35757
2009-05-27 07:51:28 51°20.021 2°49.347 -999 0.024199 0.139067 0.392394
2009-05-27 07:51:32 51°20.031 2°49.335 -999 0.023788 0.136694 0.392394
2009-05-27 07:51:38 51°20.047 2°49.317 -999 0.026257 0.150968 0.392394
2009-05-27 07:51:43 51°20.06 2°49.303 -999 0.025023 0.143813 0.392394
2009-05-27 07:51:48 51°20.072 2°49.287 -999 0.025228 0.145002 0.392394
2009-05-27 07:51:53 51°20.085 2°49.272 -999 0.025228 0.145002 0.392394
2009-05-27 07:51:58 51°20.098 2°49.257 -999 0.025125 0.144418 0.392394
2009-05-27 07:52:03 51°20.11 2°49.242 -999 0.025023 0.143829 0.392394
2009-05-27 07:52:08 51°20.123 2°49.227 -999 0.024199 0.139077 0.35757
2009-05-27 07:52:13 51°20.135 2°49.212 -999 0.024199 0.139085 0.392394
2009-05-27 07:52:18 51°20.148 2°49.197 -999 0.024302 0.139678 0.35757
2009-05-27 07:52:23 51°20.16 2°49.181 -999 0.024302 0.139678 0.35757
2009-05-27 07:52:28 51°20.173 2°49.165 -999 0.024817 0.142651 0.392394
2009-05-27 07:52:33 51°20.186 2°49.15 -999 0.025228 0.145031 0.35757
2009-05-27 07:52:38 51°20.199 2°49.135 -999 0.023891 0.137311 0.392394
2009-05-27 07:52:43 51°20.212 2°49.119 -999 0.024302 0.139678 0.392394
2009-05-27 07:52:48 51°20.226 2°49.104 -999 0.025023 0.143834 0.392394
2009-05-27 07:52:53 51°20.238 2°49.089 -999 0.025023 0.143834 0.392394
2009-05-27 07:52:58 51°20.252 2°49.074 -999 0.023891 0.137318 0.392394
2009-05-27 07:53:03 51°20.265 2°49.058 -999 0.024405 0.140289 0.392394
2009-05-27 07:53:08 51°20.278 2°49.043 -999 0.024199 0.139105 0.392394
2009-05-27 07:53:13 51°20.291 2°49.026 -999 0.024611 0.141479 0.392394
2009-05-27 07:53:18 51°20.304 2°49.011 -999 0.02492 0.143276 0.392394
2009-05-27 07:53:23 51°20.317 2°48.996 -999 0.02492 0.143276 0.392394
2009-05-27 07:53:28 51°20.33 2°48.981 -999 0.024611 0.141459 0.35757
2009-05-27 07:53:32 51°20.34 2°48.969 -999 0.023993 0.137901 0.35757
2009-05-27 07:53:38 51°20.356 2°48.95 -999 0.025434 0.14622 0.392394
2009-05-27 07:53:43 51°20.369 2°48.935 -999 0.024096 0.138507 0.392394
2009-05-27 07:53:48 51°20.382 2°48.92 -999 0.024508 0.140901 0.392394
2009-05-27 07:53:53 51°20.395 2°48.904 -999 0.024508 0.140901 0.392394
2009-05-27 07:53:58 51°20.408 2°48.888 -999 0.024611 0.141497 0.392394
2009-05-27 07:54:03 51°20.421 2°48.873 -999 0.024508 0.140934 0.392394
2009-05-27 07:54:08 51°20.434 2°48.858 -999 0.023993 0.137961 0.392394
2009-05-27 07:54:13 51°20.447 2°48.842 -999 0.024096 0.138542 0.35757
2009-05-27 07:54:18 51°20.46 2°48.826 -999 0.026772 0.154015 0.35757
2009-05-27 07:54:23 51°20.473 2°48.81 -999 0.026772 0.154015 0.35757
2009-05-27 07:54:28 51°20.486 2°48.794 -999 0.025125 0.144481 0.392394
2009-05-27 07:54:33 51°20.499 2°48.778 -999 0.025331 0.145665 0.392394
2009-05-27 07:54:38 51°20.512 2°48.762 -999 0.024199 0.139133 0.35757
2009-05-27 07:54:43 51°20.525 2°48.746 -999 0.024405 0.140315 0.392394
2009-05-27 07:54:48 51°20.538 2°48.731 -999 0.023993 0.137939 0.35757
2009-05-27 07:54:53 51°20.551 2°48.714 -999 0.023993 0.137939 0.35757
2009-05-27 07:54:58 51°20.564 2°48.698 -999 0.024302 0.139703 0.392394
2009-05-27 07:55:03 51°20.577 2°48.682 -999 0.023993 0.137929 0.35757
2009-05-27 07:55:08 51°20.589 2°48.666 -999 0.02492 0.143287 0.392394
2009-05-27 07:55:13 51°20.602 2°48.65 -999 0.02492 0.1433 0.392394
2009-05-27 07:55:18 51°20.615 2°48.634 -999 0.025023 0.143881 0.392394
2009-05-27 07:55:23 51°20.628 2°48.617 -999 0.025023 0.143881 0.392394
2009-05-27 07:55:28 51°20.641 2°48.602 -999 0.025331 0.145662 0.392394
2009-05-27 07:55:33 51°20.654 2°48.586 -999 0.024508 0.140898 0.392394
2009-05-27 07:55:38 51°20.666 2°48.57 -999 0.025023 0.143873 0.35757
2009-05-27 07:55:43 51°20.68 2°48.555 -999 0.024405 0.140292 0.35757
2009-05-27 07:55:48 51°20.693 2°48.539 -999 0.024302 0.139701 0.392394
2009-05-27 07:55:53 51°20.706 2°48.523 -999 0.024302 0.139701 0.392394
2009-05-27 07:55:58 51°20.719 2°48.507 -999 0.024302 0.139698 0.35757
2009-05-27 07:56:03 51°20.732 2°48.492 -999 0.023993 0.137958 0.392394
2009-05-27 07:56:08 51°20.745 2°48.478 -999 0.024405 0.14034 0.35757
2009-05-27 07:56:13 51°20.758 2°48.464 -999 0.024096 0.138567 0.35757
2009-05-27 07:56:18 51°20.771 2°48.449 -999 0.027595 0.158816 0.35757
2009-05-27 07:56:23 51°20.783 2°48.433 -999 0.027595 0.158816 0.35757
2009-05-27 07:56:28 51°20.796 2°48.419 -999 0.025537 0.146887 0.35757
2009-05-27 07:56:33 51°20.809 2°48.402 -999 0.025949 0.149257 0.392394
2009-05-27 07:56:38 51°20.822 2°48.388 -999 0.02492 0.143318 0.35757
2009-05-27 07:56:43 51°20.835 2°48.373 -999 0.024817 0.142682 0.35757
2009-05-27 07:56:48 51°20.848 2°48.357 -999 0.024508 0.140908 0.392394
2009-05-27 07:56:53 51°20.861 2°48.342 -999 0.024508 0.140908 0.392394
2009-05-27 07:56:58 51°20.874 2°48.326 -999 0.024302 0.139716 0.35757
2009-05-27 07:57:03 51°20.887 2°48.31 -999 0.024405 0.14033 0.35757
2009-05-27 07:57:08 51°20.9 2°48.295 -999 0.024096 0.138554 0.35757
2009-05-27 07:57:13 51°20.913 2°48.279 -999 0.025125 0.144502 0.392394
2009-05-27 07:57:18 51°20.926 2°48.264 -999 0.024096 0.138567 0.35757
2009-05-27 07:57:23 51°20.939 2°48.248 -999 0.024096 0.138567 0.35757
2009-05-27 07:57:28 51°20.952 2°48.232 -999 0.023993 0.137961 0.35757
2009-05-27 07:57:33 51°20.965 2°48.217 -999 0.025023 0.143915 0.35757
2009-05-27 07:57:38 51°20.978 2°48.202 -999 0.023993 0.137966 0.392394
2009-05-27 07:57:43 51°20.991 2°48.187 -999 0.023993 0.137951 0.35757
2009-05-27 07:57:48 51°21.004 2°48.172 -999 0.024405 0.140337 0.35757
2009-05-27 07:57:53 51°21.017 2°48.157 -999 0.024405 0.140337 0.35757
2009-05-27 07:57:58 51°21.03 2°48.142 -999 0.023993 0.137976 0.35757
2009-05-27 07:58:03 51°21.043 2°48.127 -999 0.023993 0.137988 0.392394
2009-05-27 07:58:08 51°21.056 2°48.112 -999 0.023993 0.137978 0.35757
2009-05-27 07:58:13 51°21.069 2°48.096 -999 0.023685 0.136216 0.35757
2009-05-27 07:58:18 51°21.082 2°48.081 -999 0.025949 0.149309 0.35757
2009-05-27 07:58:23 51°21.095 2°48.065 -999 0.025949 0.149309 0.35757
2009-05-27 07:58:28 51°21.108 2°48.05 -999 0.024714 0.142147 0.392394
2009-05-27 07:58:33 51°21.122 2°48.034 -999 0.025125 0.144523 0.392394
2009-05-27 07:58:38 51°21.135 2°48.019 -999 0.024199 0.139195 0.35757
2009-05-27 07:58:43 51°21.148 2°48.004 -999 0.024096 0.138564 0.35757
2009-05-27 07:58:48 51°21.161 2°47.987 -999 0.024508 0.140977 0.392394
2009-05-27 07:58:52 51°21.172 2°47.976 -999 0.024508 0.140977 0.392394
2009-05-27 07:58:58 51°21.187 2°47.957 -999 0.023993 0.138006 0.392394
2009-05-27 07:59:03 51°21.201 2°47.941 -999 0.024302 0.139779 0.35757
2009-05-27 07:59:08 51°21.214 2°47.925 -999 0.023685 0.136209 0.35757
2009-05-27 07:59:13 51°21.227 2°47.91 -999 0.023788 0.136794 0.35757
2009-05-27 07:59:18 51°21.24 2°47.893 -999 0.023788 0.136785 0.35757
2009-05-27 07:59:23 51°21.253 2°47.877 -999 0.023788 0.136785 0.35757
2009-05-27 07:59:28 51°21.266 2°47.861 -999 0.023685 0.136204 0.35757
2009-05-27 07:59:33 51°21.279 2°47.844 -999 0.024096 0.138584 0.35757
2009-05-27 07:59:38 51°21.292 2°47.828 -999 0.023582 0.135631 0.392394
2009-05-27 07:59:43 51°21.305 2°47.811 -999 0.023685 0.136221 0.35757
2009-05-27 07:59:48 51°21.317 2°47.794 -999 0.023788 0.136804 0.35757
2009-05-27 07:59:53 51°21.329 2°47.776 -999 0.023788 0.136804 0.35757
2009-05-27 07:59:58 51°21.342 2°47.759 -999 0.023582 0.135618 0.392394
2009-05-27 08:00:03 51°21.354 2°47.742 -999 0.023376 0.134447 0.35757
2009-05-27 08:00:08 51°21.366 2°47.724 -999 0.02317 0.133262 0.35757
2009-05-27 08:00:13 51°21.379 2°47.706 -999 0.024096 0.138609 0.35757
2009-05-27 08:00:18 51°21.392 2°47.689 -999 0.023788 0.136836 0.35757
2009-05-27 08:00:23 51°21.404 2°47.671 -999 0.023788 0.136836 0.35757
2009-05-27 08:00:28 51°21.417 2°47.653 -999 0.023685 0.136228 0.35757
2009-05-27 08:00:33 51°21.429 2°47.636 -999 0.023891 0.137417 0.35757
2009-05-27 08:00:38 51°21.441 2°47.617 -999 0.023788 0.136812 0.35757
2009-05-27 08:00:43 51°21.454 2°47.599 -999 0.023376 0.13444 0.35757
2009-05-27 08:00:48 51°21.466 2°47.58 -999 0.023479 0.13504 0.35757
2009-05-27 08:00:53 51°21.478 2°47.561 -999 0.023479 0.13504 0.35757
2009-05-27 08:00:58 51°21.489 2°47.541 -999 0.023993 0.138016 0.35757
2009-05-27 08:01:03 51°21.501 2°47.522 -999 0.025331 0.145752 0.392394
2009-05-27 08:01:08 51°21.512 2°47.503 -999 0.025331 0.145757 0.35757
2009-05-27 08:01:13 51°21.524 2°47.484 -999 0.024611 0.141602 0.35757
2009-05-27 08:01:18 51°21.536 2°47.466 -999 0.023788 0.136849 0.35757
2009-05-27 08:01:23 51°21.547 2°47.447 -999 0.023788 0.136849 0.35757
2009-05-27 08:01:28 51°21.56 2°47.429 -999 0.024817 0.142796 0.35757
2009-05-27 08:01:33 51°21.572 2°47.412 -999 0.024508 0.141015 0.35757
2009-05-27 08:01:38 51°21.585 2°47.396 -999 0.024096 0.138624 0.35757
2009-05-27 08:01:43 51°21.598 2°47.38 -999 0.02492 0.143367 0.392394
2009-05-27 08:01:48 51°21.612 2°47.365 -999 0.02636 0.151724 0.35757
2009-05-27 08:01:52 51°21.623 2°47.353 -999 0.02636 0.151724 0.35757
2009-05-27 08:01:58 51°21.64 2°47.337 -999 0.024611 0.14162 0.35757
2009-05-27 08:02:03 51°21.653 2°47.323 -999 0.026463 0.152334 0.35757
2009-05-27 08:02:08 51°21.668 2°47.312 -999 0.026875 0.154713 0.35757
2009-05-27 08:02:13 51°21.682 2°47.298 -999 0.026772 0.154091 0.35757
2009-05-27 08:02:18 51°21.696 2°47.286 -999 0.026155 0.150536 0.35757
2009-05-27 08:02:23 51°21.71 2°47.274 -999 0.026155 0.150536 0.35757
2009-05-27 08:02:28 51°21.724 2°47.261 -999 0.02564 0.147541 0.35757
2009-05-27 08:02:33 51°21.739 2°47.249 -999 0.02636 0.151699 0.35757
2009-05-27 08:02:38 51°21.753 2°47.237 -999 0.025846 0.148721 0.392394
2009-05-27 08:02:43 51°21.768 2°47.225 -999 0.02564 0.147533 0.35757
2009-05-27 08:02:48 51°21.782 2°47.213 -999 0.026257 0.151113 0.35757
2009-05-27 08:02:53 51°21.797 2°47.201 -999 0.026257 0.151113 0.35757
2009-05-27 08:02:58 51°21.812 2°47.19 -999 0.026155 0.150539 0.35757
2009-05-27 08:03:03 51°21.826 2°47.18 -999 0.025846 0.148724 0.35757
2009-05-27 08:03:08 51°21.841 2°47.168 -999 0.02636 0.151707 0.35757
2009-05-27 08:03:13 51°21.855 2°47.156 -999 0.026155 0.150525 0.392394
2009-05-27 08:03:18 51°21.87 2°47.143 -999 0.025331 0.145771 0.35757
2009-05-27 08:03:23 51°21.884 2°47.132 -999 0.025331 0.145771 0.35757
2009-05-27 08:03:28 51°21.899 2°47.119 -999 0.025743 0.148139 0.392394
2009-05-27 08:03:33 51°21.913 2°47.108 -999 0.025537 0.146956 0.35757
2009-05-27 08:03:38 51°21.927 2°47.094 -999 0.02883 0.166099 0.35757
2009-05-27 08:03:43 51°21.942 2°47.083 -999 0.027492 0.1583 0.35757
2009-05-27 08:03:48 51°21.955 2°47.07 -999 0.030374 0.1751 0.35757
2009-05-27 08:03:53 51°21.969 2°47.057 -999 0.030374 0.1751 0.35757
2009-05-27 08:03:58 51°21.984 2°47.045 -999 0.027698 0.159543 0.35757
2009-05-27 08:04:03 51°21.999 2°47.032 -999 0.029139 0.167903 0.35757
2009-05-27 08:04:08 51°22.014 2°47.022 -999 0.027389 0.157726 0.35757
2009-05-27 08:04:13 51°22.028 2°47.009 -999 0.028213 0.162523 0.35757
2009-05-27 08:04:18 51°22.043 2°46.999 -999 0.026669 0.153544 0.392394
2009-05-27 08:04:23 51°22.057 2°46.987 -999 0.026669 0.153544 0.392394
2009-05-27 08:04:28 51°22.072 2°46.976 -999 0.026978 0.155336 0.35757
2009-05-27 08:04:33 51°22.086 2°46.964 -999 0.026978 0.155327 0.35757
2009-05-27 08:04:38 51°22.101 2°46.954 -999 0.026875 0.15473 0.35757
2009-05-27 08:04:43 51°22.115 2°46.942 -999 0.025331 0.145792 0.35757
2009-05-27 08:04:48 51°22.129 2°46.931 -999 0.025743 0.148177 0.35757
2009-05-27 08:04:52 51°22.141 2°46.922 -999 0.025743 0.148177 0.35757
2009-05-27 08:04:58 51°22.158 2°46.909 -999 0.025125 0.144604 0.35757
2009-05-27 08:05:03 51°22.173 2°46.898 -999 0.025023 0.143975 0.35757
2009-05-27 08:05:08 51°22.188 2°46.886 -999 0.025743 0.148161 0.35757
2009-05-27 08:05:13 51°22.202 2°46.875 -999 0.025228 0.145217 0.35757
2009-05-27 08:05:18 51°22.217 2°46.864 -999 0.027184 0.156556 0.35757
2009-05-27 08:05:23 51°22.232 2°46.852 -999 0.027184 0.156556 0.35757
2009-05-27 08:05:28 51°22.246 2°46.841 -999 0.026155 0.150589 0.35757
2009-05-27 08:05:33 51°22.26 2°46.83 -999 0.026257 0.151188 0.35757
2009-05-27 08:05:38 51°22.275 2°46.818 -999 0.027389 0.157752 0.35757
2009-05-27 08:05:43 51°22.289 2°46.808 -999 0.026978 0.155381 0.35757
2009-05-27 08:05:48 51°22.304 2°46.796 -999 0.031711 0.182981 0.35757
2009-05-27 08:05:53 51°22.318 2°46.785 -999 0.031711 0.182981 0.35757
2009-05-27 08:05:58 51°22.332 2°46.774 -999 0.027904 0.160769 0.35757
2009-05-27 08:06:03 51°22.347 2°46.763 -999 0.029756 0.171553 0.35757
2009-05-27 08:06:08 51°22.361 2°46.752 -999 0.026772 0.154167 0.35757
2009-05-27 08:06:13 51°22.375 2°46.74 -999 0.027698 0.159534 0.35757
2009-05-27 08:06:18 51°22.389 2°46.73 -999 0.028521 0.16431 0.35757
2009-05-27 08:06:23 51°22.404 2°46.718 -999 0.028521 0.16431 0.35757
2009-05-27 08:06:28 51°22.418 2°46.707 -999 0.027595 0.158956 0.35757
2009-05-27 08:06:33 51°22.432 2°46.696 -999 0.027492 0.158364 0.35757
2009-05-27 08:06:38 51°22.446 2°46.685 -999 0.026155 0.150567 0.35757
2009-05-27 08:06:43 51°22.461 2°46.673 -999 0.026257 0.15116 0.35757
2009-05-27 08:06:48 51°22.474 2°46.66 -999 0.029756 0.171519 0.35757
2009-05-27 08:06:53 51°22.488 2°46.647 -999 0.029756 0.171519 0.35757
2009-05-27 08:06:58 51°22.502 2°46.634 -999 0.026052 0.149973 0.35757
2009-05-27 08:07:03 51°22.515 2°46.62 -999 0.02811 0.161951 0.35757
2009-05-27 08:07:08 51°22.529 2°46.607 -999 0.026155 0.150597 0.35757
2009-05-27 08:07:13 51°22.542 2°46.592 -999 0.02564 0.147621 0.35757
2009-05-27 08:07:18 51°22.556 2°46.578 -999 0.025331 0.145829 0.35757
2009-05-27 08:07:23 51°22.569 2°46.563 -999 0.025331 0.145829 0.35757
2009-05-27 08:07:28 51°22.583 2°46.55 -999 0.02564 0.147627 0.35757
2009-05-27 08:07:33 51°22.596 2°46.535 -999 0.024817 0.142863 0.35757
2009-05-27 08:07:38 51°22.609 2°46.521 -999 0.025743 0.148204 0.35757
2009-05-27 08:07:43 51°22.623 2°46.507 -999 0.024817 0.142855 0.35757
2009-05-27 08:07:48 51°22.635 2°46.492 -999 0.025125 0.144635 0.35757
2009-05-27 08:07:52 51°22.646 2°46.48 -999 0.025125 0.144635 0.35757
2009-05-27 08:07:58 51°22.662 2°46.463 -999 0.024714 0.142255 0.35757
2009-05-27 08:08:03 51°22.675 2°46.448 -999 0.025023 0.144043 0.35757
2009-05-27 08:08:08 51°22.689 2°46.434 -999 0.026052 0.150019 0.35757
2009-05-27 08:08:13 51°22.702 2°46.42 -999 0.02636 0.151815 0.35757
2009-05-27 08:08:18 51°22.716 2°46.405 -999 0.026772 0.154229 0.35757
2009-05-27 08:08:23 51°22.729 2°46.391 -999 0.026772 0.154229 0.35757
2009-05-27 08:08:28 51°22.742 2°46.376 -999 0.025537 0.147052 0.35757
2009-05-27 08:08:33 51°22.756 2°46.362 -999 0.025537 0.147036 0.35757
2009-05-27 08:08:38 51°22.769 2°46.347 -999 0.026669 0.153595 0.35757
2009-05-27 08:08:43 51°22.782 2°46.333 -999 0.026257 0.151218 0.35757
2009-05-27 08:08:48 51°22.796 2°46.319 -999 0.027801 0.16017 0.35757
2009-05-27 08:08:53 51°22.809 2°46.305 -999 0.027801 0.16017 0.35757
2009-05-27 08:08:58 51°22.822 2°46.292 -999 0.02636 0.151793 0.35757
2009-05-27 08:09:03 51°22.836 2°46.278 -999 0.025434 0.146408 0.35757
2009-05-27 08:09:08 51°22.848 2°46.264 -999 0.025949 0.149407 0.35757
2009-05-27 08:09:13 51°22.862 2°46.251 -999 0.025228 0.145233 0.35757
2009-05-27 08:09:18 51°22.875 2°46.236 -999 0.026566 0.15302 0.35757
2009-05-27 08:09:23 51°22.888 2°46.222 -999 0.026566 0.15302 0.35757
2009-05-27 08:09:28 51°22.901 2°46.208 -999 0.02564 0.147653 0.35757
2009-05-27 08:09:33 51°22.914 2°46.194 -999 0.024508 0.141104 0.35757
2009-05-27 08:09:38 51°22.927 2°46.18 -999 0.024302 0.139908 0.35757
2009-05-27 08:09:43 51°22.94 2°46.165 -999 0.024199 0.139306 0.35757
2009-05-27 08:09:48 51°22.953 2°46.151 -999 0.024817 0.142886 0.35757
2009-05-27 08:09:53 51°22.966 2°46.137 -999 0.024817 0.142886 0.35757
2009-05-27 08:09:58 51°22.98 2°46.123 -999 0.024199 0.139338 0.35757
2009-05-27 08:10:03 51°22.993 2°46.107 -999 0.02564 0.147672 0.35757
2009-05-27 08:10:08 51°23.006 2°46.093 -999 0.024302 0.139925 0.35757
2009-05-27 08:10:13 51°23.019 2°46.078 -999 0.024817 0.142902 0.35757
2009-05-27 08:10:18 51°23.033 2°46.065 -999 0.024405 0.140512 0.35757
2009-05-27 08:10:23 51°23.046 2°46.051 -999 0.024405 0.140512 0.35757
2009-05-27 08:10:28 51°23.059 2°46.036 -999 0.025023 0.144087 0.35757
2009-05-27 08:10:33 51°23.073 2°46.023 -999 0.024302 0.13992 0.35757
2009-05-27 08:10:38 51°23.086 2°46.008 -999 0.025023 0.144085 0.35757
2009-05-27 08:10:43 51°23.1 2°45.994 -999 0.024096 0.138739 0.35757
2009-05-27 08:10:48 51°23.113 2°45.979 -999 0.031197 0.18006 0.35757
2009-05-27 08:10:52 51°23.124 2°45.968 -999 0.031197 0.18006 0.35757
2009-05-27 08:10:58 51°23.14 2°45.951 -999 0.026875 0.154854 0.35757
2009-05-27 08:11:03 51°23.153 2°45.938 -999 0.029756 0.171623 0.35757
2009-05-27 08:11:08 51°23.167 2°45.924 -999 0.026052 0.150047 0.35757
2009-05-27 08:11:13 51°23.18 2°45.91 -999 0.026875 0.154823 0.35757
2009-05-27 08:11:18 51°23.194 2°45.897 -999 0.026566 0.153037 0.35757
2009-05-27 08:11:23 51°23.207 2°45.883 -999 0.026566 0.153037 0.35757
2009-05-27 08:11:28 51°23.221 2°45.87 -999 0.025846 0.148857 0.35757
2009-05-27 08:11:33 51°23.234 2°45.856 -999 0.026772 0.1542 0.35757
2009-05-27 08:11:38 51°23.247 2°45.844 -999 0.026155 0.150635 0.35757
2009-05-27 08:11:43 51°23.26 2°45.829 -999 0.028213 0.162616 0.35757
2009-05-27 08:11:48 51°23.274 2°45.817 -999 0.02636 0.151851 0.35757
2009-05-27 08:11:53 51°23.286 2°45.802 -999 0.02636 0.151851 0.35757
2009-05-27 08:11:58 51°23.299 2°45.788 -999 0.027595 0.159035 0.35757
2009-05-27 08:12:03 51°23.313 2°45.774 -999 0.025434 0.146478 0.35757
2009-05-27 08:12:08 51°23.326 2°45.76 -999 0.026772 0.154246 0.35757
2009-05-27 08:12:13 51°23.339 2°45.747 -999 0.025743 0.148287 0.35757
2009-05-27 08:12:18 51°23.352 2°45.732 -999 0.025125 0.144717 0.35757
2009-05-27 08:12:23 51°23.366 2°45.719 -999 0.025125 0.144717 0.35757
2009-05-27 08:12:28 51°23.379 2°45.704 -999 0.025434 0.146491 0.35757
2009-05-27 08:12:33 51°23.392 2°45.689 -999 0.02564 0.147683 0.35757
2009-05-27 08:12:38 51°23.405 2°45.675 -999 0.025228 0.145299 0.35757
2009-05-27 08:12:43 51°23.418 2°45.661 -999 0.026875 0.154852 0.35757
2009-05-27 08:12:48 51°23.432 2°45.648 -999 0.02492 0.14352 0.35757
2009-05-27 08:12:53 51°23.445 2°45.634 -999 0.02492 0.14352 0.35757
2009-05-27 08:12:58 51°23.458 2°45.621 -999 0.024199 0.139346 0.35757
2009-05-27 08:13:03 51°23.471 2°45.606 -999 0.027801 0.160229 0.35757
2009-05-27 08:13:08 51°23.485 2°45.593 -999 0.025331 0.145927 0.35757
2009-05-27 08:13:13 51°23.497 2°45.577 -999 0.030991 0.178856 0.35757
2009-05-27 08:13:18 51°23.511 2°45.564 -999 0.027595 0.159026 0.35757
2009-05-27 08:13:23 51°23.523 2°45.549 -999 0.027595 0.159026 0.35757
2009-05-27 08:13:28 51°23.538 2°45.536 -999 0.027389 0.157847 0.35757
2009-05-27 08:13:33 51°23.55 2°45.52 -999 0.031197 0.180054 0.35757
2009-05-27 08:13:38 51°23.564 2°45.507 -999 0.026978 0.155432 0.35757
2009-05-27 08:13:43 51°23.576 2°45.491 -999 0.035622 0.206061 0.35757
2009-05-27 08:13:48 51°23.59 2°45.479 -999 0.028727 0.165667 0.35757
2009-05-27 08:13:52 51°23.601 2°45.467 -999 0.028727 0.165667 0.35757
2009-05-27 08:13:58 51°23.616 2°45.45 -999 0.034593 0.199995 0.35757
2009-05-27 08:14:03 51°23.63 2°45.436 -999 0.028213 0.162676 0.35757
2009-05-27 08:14:08 51°23.643 2°45.421 -999 0.030065 0.173471 0.35757
2009-05-27 08:14:13 51°23.656 2°45.408 -999 0.026669 0.153665 0.35757
2009-05-27 08:14:18 51°23.669 2°45.392 -999 0.030785 0.177659 0.322746
2009-05-27 08:14:23 51°23.682 2°45.378 -999 0.030785 0.177659 0.322746
2009-05-27 08:14:28 51°23.695 2°45.363 -999 0.027801 0.160247 0.322746
2009-05-27 08:14:33 51°23.708 2°45.349 -999 0.028213 0.162658 0.35757
2009-05-27 08:14:38 51°23.721 2°45.335 -999 0.027698 0.15966 0.35757
2009-05-27 08:14:43 51°23.734 2°45.32 -999 0.027389 0.157859 0.35757
2009-05-27 08:14:48 51°23.748 2°45.306 -999 0.026155 0.150682 0.35757
2009-05-27 08:14:53 51°23.761 2°45.291 -999 0.026155 0.150682 0.35757
2009-05-27 08:14:58 51°23.774 2°45.277 -999 0.028624 0.16504 0.35757
2009-05-27 08:15:03 51°23.787 2°45.263 -999 0.026257 0.151273 0.35757
2009-05-27 08:15:08 51°23.8 2°45.249 -999 0.026463 0.152465 0.35757
2009-05-27 08:15:13 51°23.814 2°45.235 -999 0.025434 0.146499 0.35757
2009-05-27 08:15:18 51°23.826 2°45.219 -999 0.029036 0.167439 0.35757
2009-05-27 08:15:23 51°23.84 2°45.205 -999 0.029036 0.167439 0.35757
2009-05-27 08:15:28 51°23.853 2°45.191 -999 0.025846 0.148897 0.322746
2009-05-27 08:15:33 51°23.866 2°45.177 -999 0.026978 0.155469 0.35757
2009-05-27 08:15:38 51°23.88 2°45.164 -999 0.02636 0.151873 0.322746
2009-05-27 08:15:43 51°23.893 2°45.149 -999 0.027184 0.156659 0.35757
2009-05-27 08:15:48 51°23.906 2°45.136 -999 0.027081 0.156073 0.35757
2009-05-27 08:15:53 51°23.919 2°45.122 -999 0.027081 0.156073 0.35757
2009-05-27 08:15:58 51°23.932 2°45.108 -999 0.026669 0.15369 0.35757
2009-05-27 08:16:03 51°23.944 2°45.093 -999 0.028213 0.16267 0.35757
2009-05-27 08:16:08 51°23.958 2°45.079 -999 0.026155 0.150707 0.35757
2009-05-27 08:16:13 51°23.97 2°45.064 -999 0.030477 0.175893 0.35757
2009-05-27 08:16:18 51°23.984 2°45.05 -999 0.026978 0.155481 0.35757
2009-05-27 08:16:23 51°23.997 2°45.036 -999 0.026978 0.155481 0.35757
2009-05-27 08:16:28 51°24.01 2°45.022 -999 0.026463 0.152501 0.35757
2009-05-27 08:16:33 51°24.024 2°45.008 -999 0.029139 0.168089 0.322746
2009-05-27 08:16:38 51°24.037 2°44.995 -999 0.025949 0.149513 0.35757
2009-05-27 08:16:43 51°24.05 2°44.981 -999 0.026772 0.154288 0.35757
2009-05-27 08:16:48 51°24.063 2°44.969 -999 0.029859 0.172298 0.35757
2009-05-27 08:16:52 51°24.075 2°44.961 -999 0.029859 0.172298 0.35757
2009-05-27 08:16:58 51°24.091 2°44.952 -999 0.027492 0.158521 0.322746
2009-05-27 08:17:03 51°24.106 2°44.946 -999 0.029859 0.172307 0.35757
2009-05-27 08:17:08 51°24.12 2°44.944 -999 0.030271 0.174716 0.35757
2009-05-27 08:17:13 51°24.135 2°44.944 -999 0.03377 0.195249 0.35757
2009-05-27 08:17:18 51°24.149 2°44.947 -999 0.033564 0.194043 0.35757
2009-05-27 08:17:23 51°24.162 2°44.953 -999 0.033564 0.194043 0.35757
2009-05-27 08:17:28 51°24.175 2°44.963 -999 0.032741 0.1892 0.35757
2009-05-27 08:17:33 51°24.187 2°44.974 -999 0.035622 0.206139 0.35757
2009-05-27 08:17:38 51°24.199 2°44.986 -999 0.035416 0.20493 0.35757
2009-05-27 08:17:43 51°24.209 2°45.001 -999 0.028007 0.161498 0.322746
2009-05-27 08:17:48 51°24.221 2°45.014 -999 0.039635 0.229867 0.35757
2009-05-27 08:17:53 51°24.23 2°45.03 -999 0.039635 0.229867 0.35757
2009-05-27 08:17:58 51°24.241 2°45.046 -999 0.030271 0.174709 0.35757
2009-05-27 08:18:03 51°24.251 2°45.063 -999 0.035828 0.207321 0.35757
2009-05-27 08:18:08 51°24.26 2°45.081 -999 0.031917 0.184347 0.35757
2009-05-27 08:18:13 51°24.268 2°45.099 -999 0.031403 0.181329 0.35757
2009-05-27 08:18:18 51°24.277 2°45.118 -999 0.029036 0.16748 0.35757
2009-05-27 08:18:23 51°24.285 2°45.138 -999 0.029036 0.16748 0.35757
2009-05-27 08:18:28 51°24.293 2°45.157 -999 0.03768 0.218268 0.35757
2009-05-27 08:18:33 51°24.3 2°45.178 -999 0.029859 0.172285 0.322746
2009-05-27 08:18:38 51°24.309 2°45.197 -999 0.03943 0.228643 0.35757
2009-05-27 08:18:43 51°24.315 2°45.218 -999 0.033873 0.195847 0.35757
2009-05-27 08:18:48 51°24.322 2°45.238 -999 0.02883 0.166295 0.322746
2009-05-27 08:18:53 51°24.33 2°45.258 -999 0.02883 0.166295 0.322746
2009-05-27 08:18:58 51°24.337 2°45.279 -999 0.040459 0.234744 0.35757
2009-05-27 08:19:03 51°24.343 2°45.3 -999 0.029653 0.171105 0.322746
2009-05-27 08:19:08 51°24.352 2°45.321 -999 0.038606 0.223788 0.35757
2009-05-27 08:19:13 51°24.357 2°45.342 -999 0.032946 0.190434 0.322746
2009-05-27 08:19:18 51°24.366 2°45.362 -999 0.031403 0.181366 0.35757
2009-05-27 08:19:23 51°24.373 2°45.384 -999 0.031403 0.181366 0.35757
2009-05-27 08:19:28 51°24.381 2°45.404 -999 0.030888 0.178334 0.35757
2009-05-27 08:19:33 51°24.389 2°45.423 -999 0.031814 0.183761 0.35757
2009-05-27 08:19:38 51°24.396 2°45.443 -999 0.033255 0.192262 0.35757
2009-05-27 08:19:43 51°24.404 2°45.463 -999 0.03521 0.203775 0.35757
2009-05-27 08:19:48 51°24.412 2°45.483 -999 0.030785 0.177781 0.322746
2009-05-27 08:19:52 51°24.418 2°45.498 -999 0.030785 0.177781 0.322746
2009-05-27 08:19:58 51°24.429 2°45.522 -999 0.0384 0.222595 0.35757
2009-05-27 08:20:03 51°24.437 2°45.541 -999 0.03058 0.176564 0.35757
2009-05-27 08:20:08 51°24.446 2°45.56 -999 0.029653 0.171115 0.35757
2009-05-27 08:20:13 51°24.454 2°45.579 -999 0.031917 0.184375 0.35757
2009-05-27 08:20:18 51°24.462 2°45.598 -999 0.030477 0.175909 0.35757
2009-05-27 08:20:23 51°24.472 2°45.616 -999 0.030477 0.175909 0.35757
2009-05-27 08:20:28 51°24.479 2°45.637 -999 0.03768 0.218359 0.35757
2009-05-27 08:20:33 51°24.489 2°45.656 -999 0.028727 0.165732 0.322746
2009-05-27 08:20:38 51°24.498 2°45.674 -999 0.041488 0.240909 0.35757
2009-05-27 08:20:43 51°24.504 2°45.694 -999 0.032123 0.18562 0.322746
2009-05-27 08:20:48 51°24.513 2°45.713 -999 0.032741 0.18919 0.35757
2009-05-27 08:20:53 51°24.522 2°45.73 -999 0.032741 0.18919 0.35757
2009-05-27 08:20:58 51°24.53 2°45.749 -999 0.040253 0.233594 0.322746
2009-05-27 08:21:03 51°24.539 2°45.767 -999 0.02955 0.170567 0.322746
2009-05-27 08:21:08 51°24.548 2°45.785 -999 0.041796 0.242767 0.35757
2009-05-27 08:21:13 51°24.555 2°45.804 -999 0.030477 0.175975 0.35757
2009-05-27 08:21:18 51°24.565 2°45.821 -999 0.038298 0.221982 0.35757
2009-05-27 08:21:23 51°24.574 2°45.839 -999 0.038298 0.221982 0.35757
2009-05-27 08:21:28 51°24.582 2°45.858 -999 0.037269 0.215913 0.322746
2009-05-27 08:21:33 51°24.591 2°45.876 -999 0.028933 0.166944 0.35757
2009-05-27 08:21:38 51°24.6 2°45.894 -999 0.029962 0.172953 0.35757
2009-05-27 08:21:43 51°24.609 2°45.913 -999 0.033152 0.19166 0.35757
2009-05-27 08:21:48 51°24.617 2°45.931 -999 0.031814 0.18382 0.322746
2009-05-27 08:21:52 51°24.623 2°45.947 -999 0.031814 0.18382 0.322746
2009-05-27 08:21:58 51°24.635 2°45.967 -999 0.035725 0.206781 0.35757
2009-05-27 08:22:03 51°24.641 2°45.987 -999 0.03696 0.214101 0.35757
2009-05-27 08:22:08 51°24.651 2°46.004 -999 0.038709 0.224436 0.35757
2009-05-27 08:22:13 51°24.658 2°46.024 -999 0.032535 0.188059 0.35757
2009-05-27 08:22:18 51°24.667 2°46.042 -999 0.030477 0.175978 0.35757
2009-05-27 08:22:23 51°24.675 2°46.061 -999 0.030477 0.175978 0.35757
2009-05-27 08:22:28 51°24.684 2°46.079 -999 0.031094 0.179568 0.35757
2009-05-27 08:22:33 51°24.692 2°46.098 -999 0.033049 0.191052 0.35757
2009-05-27 08:22:38 51°24.7 2°46.117 -999 0.03449 0.19955 0.35757
2009-05-27 08:22:43 51°24.708 2°46.136 -999 0.02883 0.166353 0.35757
2009-05-27 08:22:48 51°24.717 2°46.154 -999 0.038195 0.221432 0.35757
2009-05-27 08:22:53 51°24.725 2°46.174 -999 0.038195 0.221432 0.35757
2009-05-27 08:22:58 51°24.734 2°46.192 -999 0.029345 0.169365 0.35757
2009-05-27 08:23:03 51°24.742 2°46.211 -999 0.030271 0.174774 0.35757
2009-05-27 08:23:08 51°24.751 2°46.23 -999 0.038709 0.224466 0.322746
2009-05-27 08:23:13 51°24.759 2°46.25 -999 0.03058 0.17661 0.322746
2009-05-27 08:23:18 51°24.768 2°46.267 -999 0.041694 0.242183 0.35757
2009-05-27 08:23:23 51°24.776 2°46.287 -999 0.041694 0.242183 0.35757
2009-05-27 08:23:28 51°24.784 2°46.306 -999 0.030682 0.177189 0.322746
2009-05-27 08:23:33 51°24.793 2°46.323 -999 0.042311 0.245846 0.35757
2009-05-27 08:23:38 51°24.8 2°46.343 -999 0.030991 0.179016 0.322746
2009-05-27 08:23:43 51°24.811 2°46.36 -999 0.039635 0.229954 0.35757
2009-05-27 08:23:48 51°24.819 2°46.378 -999 0.034387 0.198978 0.322746
2009-05-27 08:23:53 51°24.827 2°46.397 -999 0.034387 0.198978 0.322746
2009-05-27 08:23:58 51°24.836 2°46.415 -999 0.029859 0.172393 0.35757
2009-05-27 08:24:03 51°24.844 2°46.435 -999 0.030271 0.17479 0.322746
2009-05-27 08:24:08 51°24.854 2°46.453 -999 0.033975 0.196541 0.35757
2009-05-27 08:24:13 51°24.861 2°46.474 -999 0.032946 0.190509 0.35757
2009-05-27 08:24:18 51°24.87 2°46.493 -999 0.028933 0.167 0.322746
2009-05-27 08:24:23 51°24.879 2°46.512 -999 0.028933 0.167 0.322746
2009-05-27 08:24:28 51°24.888 2°46.53 -999 0.030374 0.175402 0.35757
2009-05-27 08:24:33 51°24.896 2°46.55 -999 0.04015 0.233064 0.322746
2009-05-27 08:24:38 51°24.903 2°46.569 -999 0.030065 0.173616 0.35757
2009-05-27 08:24:43 51°24.913 2°46.587 -999 0.031197 0.180225 0.322746
2009-05-27 08:24:48 51°24.92 2°46.606 -999 0.038195 0.221419 0.35757
2009-05-27 08:24:53 51°24.929 2°46.625 -999 0.038195 0.221419 0.35757
2009-05-27 08:24:58 51°24.937 2°46.644 -999 0.033461 0.193525 0.322746
2009-05-27 08:25:03 51°24.946 2°46.662 -999 0.038606 0.223878 0.35757
2009-05-27 08:25:08 51°24.953 2°46.683 -999 0.030168 0.174211 0.322746
2009-05-27 08:25:12 51°24.961 2°46.697 -999 0.042002 0.244037 0.35757
2009-05-27 08:25:18 51°24.969 2°46.721 -999 0.030991 0.179043 0.35757
2009-05-27 08:25:23 51°24.979 2°46.739 -999 0.030991 0.179043 0.35757
2009-05-27 08:25:28 51°24.987 2°46.758 -999 0.041179 0.239143 0.35757
2009-05-27 08:25:33 51°24.995 2°46.778 -999 0.032123 0.185686 0.35757
2009-05-27 08:25:38 51°25.003 2°46.797 -999 0.034593 0.200179 0.35757
2009-05-27 08:25:43 51°25.011 2°46.816 -999 0.037063 0.21475 0.322746
2009-05-27 08:25:48 51°25.018 2°46.836 -999 0.029139 0.168195 0.35757
2009-05-27 08:25:53 51°25.028 2°46.854 -999 0.029139 0.168195 0.35757
2009-05-27 08:25:58 51°25.036 2°46.873 -999 0.041488 0.241001 0.35757
2009-05-27 08:26:03 51°25.043 2°46.892 -999 0.034387 0.19899 0.35757
2009-05-27 08:26:08 51°25.051 2°46.912 -999 0.029242 0.168802 0.322746
2009-05-27 08:26:13 51°25.061 2°46.931 -999 0.036548 0.211714 0.35757
2009-05-27 08:26:18 51°25.068 2°46.951 -999 0.032535 0.188098 0.35757
2009-05-27 08:26:23 51°25.076 2°46.97 -999 0.032535 0.188098 0.35757
2009-05-27 08:26:28 51°25.085 2°46.99 -999 0.035519 0.205649 0.35757
2009-05-27 08:26:33 51°25.092 2°47.009 -999 0.029859 0.172393 0.322746
2009-05-27 08:26:38 51°25.101 2°47.029 -999 0.040356 0.234254 0.322746
2009-05-27 08:26:43 51°25.109 2°47.049 -999 0.02955 0.170586 0.322746
2009-05-27 08:26:48 51°25.117 2°47.067 -999 0.031609 0.182627 0.322746
2009-05-27 08:26:53 51°25.125 2°47.087 -999 0.031609 0.182627 0.322746
2009-05-27 08:26:58 51°25.133 2°47.106 -999 0.034696 0.200796 0.35757
2009-05-27 08:27:03 51°25.141 2°47.127 -999 0.029653 0.171222 0.35757
2009-05-27 08:27:08 51°25.149 2°47.146 -999 0.032123 0.185696 0.35757
2009-05-27 08:27:13 51°25.157 2°47.165 -999 0.028316 0.16341 0.322746
2009-05-27 08:27:18 51°25.165 2°47.184 -999 0.038503 0.223306 0.322746
2009-05-27 08:27:23 51°25.172 2°47.205 -999 0.038503 0.223306 0.322746
2009-05-27 08:27:28 51°25.181 2°47.223 -999 0.031814 0.183857 0.322746
2009-05-27 08:27:33 51°25.188 2°47.243 -999 0.0384 0.222714 0.322746
2009-05-27 08:27:38 51°25.196 2°47.263 -999 0.029036 0.167622 0.322746
2009-05-27 08:27:43 51°25.205 2°47.282 -999 0.042105 0.244696 0.322746
2009-05-27 08:27:48 51°25.211 2°47.302 -999 0.03202 0.185106 0.322746
2009-05-27 08:27:53 51°25.219 2°47.322 -999 0.03202 0.185106 0.322746
2009-05-27 08:27:58 51°25.228 2°47.34 -999 0.035107 0.203233 0.35757
2009-05-27 08:28:03 51°25.234 2°47.361 -999 0.03521 0.203867 0.322746
2009-05-27 08:28:08 51°25.243 2°47.379 -999 0.035931 0.208116 0.322746
2009-05-27 08:28:12 51°25.248 2°47.395 -999 0.03521 0.203886 0.322746